Time,TemperatureF,DewpointF,PressureIn,WindDirection,WindDirectionDegrees,WindSpeedMPH,WindSpeedGustMPH,Humidity,HourlyPrecipIn,Conditions,Clouds,dailyrainin,SoftwareType,DateUTC
2013-05-10 00:00:00,54.8,47.4,29.97,NNW,346,0.0,0.0,76,0.00,,SCT,0.00,WeatherDisplay:10.37,2013-05-10 04:00:00,
2013-05-10 00:01:00,54.8,47.4,29.97,NNW,346,0.0,0.0,76,0.00,,SCT,0.00,WeatherDisplay:10.37,2013-05-10 04:01:00,
2013-05-10 00:02:00,54.8,47.4,29.98,NNW,346,0.0,0.0,76,0.00,,SCT,0.00,WeatherDisplay:10.37,2013-05-10 04:02:00,
2013-05-10 00:03:00,54.8,47.4,29.98,NNW,346,0.0,0.0,76,0.00,,SCT,0.00,WeatherDisplay:10.37,2013-05-10 04:03:00,
2013-05-10 00:06:00,54.7,47.3,29.98,NNW,346,0.0,0.0,76,0.00,,SCT,0.00,WeatherDisplay:10.37,2013-05-10 04:06:00,
2013-05-10 00:07:00,54.7,47.3,29.98,NNW,346,0.0,0.0,76,0.00,,SCT,0.00,WeatherDisplay:10.37,2013-05-10 04:07:00,
2013-05-10 00:08:00,54.7,47.3,29.98,NNW,346,0.0,0.0,76,0.00,,SCT,0.00,WeatherDisplay:10.37,2013-05-10 04:08:00,
2013-05-10 00:10:00,54.5,47.1,29.98,NNW,346,0.0,0.0,76,0.00,,SCT,0.00,WeatherDisplay:10.37,2013-05-10 04:10:00,
2013-05-10 00:12:00,54.5,47.4,29.98,NNW,346,0.0,0.0,77,0.00,,SCT,0.00,WeatherDisplay:10.37,2013-05-10 04:12:00,
2013-05-10 00:15:00,54.5,47.4,29.98,NNW,346,0.0,0.0,77,0.00,,SCT,0.00,WeatherDisplay:10.37,2013-05-10 04:15:00,
2013-05-10 00:17:00,54.4,47.3,29.99,NNW,346,0.0,0.0,77,0.00,,SCT,0.00,WeatherDisplay:10.37,2013-05-10 04:17:00,
2013-05-10 00:19:00,54.4,47.3,29.99,NNW,346,0.0,0.0,77,0.00,,SCT,0.00,WeatherDisplay:10.37,2013-05-10 04:19:00,
2013-05-10 00:21:00,54.2,47.1,29.99,NNW,346,0.0,0.0,77,0.00,,SCT,0.00,WeatherDisplay:10.37,2013-05-10 04:21:00,
2013-05-10 00:22:00,54.2,47.1,29.99,NNW,346,0.0,0.0,77,0.00,,SCT,0.00,WeatherDisplay:10.37,2013-05-10 04:22:00,
2013-05-10 00:26:00,54.1,47.0,29.99,NNW,346,0.0,0.0,77,0.00,,SCT,0.00,WeatherDisplay:10.37,2013-05-10 04:26:00,
2013-05-10 00:27:00,54.1,47.0,29.99,NNW,346,0.0,0.0,77,0.00,,SCT,0.00,WeatherDisplay:10.37,2013-05-10 04:27:00,
2013-05-10 00:29:00,54.1,47.0,29.99,NNW,346,0.0,0.0,77,0.00,,SCT,0.00,WeatherDisplay:10.37,2013-05-10 04:29:00,
2013-05-10 00:31:00,54.1,47.0,29.99,NNW,346,0.0,0.0,77,0.00,,SCT,0.00,WeatherDisplay:10.37,2013-05-10 04:31:00,
2013-05-10 00:32:00,53.9,46.9,29.99,NNW,346,0.0,0.0,77,0.00,,SCT,0.00,WeatherDisplay:10.37,2013-05-10 04:32:00,
2013-05-10 00:37:00,53.8,46.8,29.99,NNW,346,0.0,0.0,77,0.00,,SCT,0.00,WeatherDisplay:10.37,2013-05-10 04:37:00,
2013-05-10 00:38:00,53.8,46.8,29.99,NNW,346,0.0,0.0,77,0.00,,SCT,0.00,WeatherDisplay:10.37,2013-05-10 04:38:00,
2013-05-10 00:39:00,53.8,47.1,29.99,NNW,346,0.0,0.0,78,0.00,,SCT,0.00,WeatherDisplay:10.37,2013-05-10 04:39:00,
2013-05-10 00:42:00,53.6,46.9,29.98,NNW,346,0.0,0.0,78,0.00,,SCT,0.00,WeatherDisplay:10.37,2013-05-10 04:42:00,
2013-05-10 00:43:00,53.6,46.9,29.98,NNW,346,0.0,0.0,78,0.00,,SCT,0.00,WeatherDisplay:10.37,2013-05-10 04:43:00,
2013-05-10 00:46:00,53.5,46.8,29.99,NNW,346,0.0,0.0,78,0.00,,SCT,0.00,WeatherDisplay:10.37,2013-05-10 04:46:00,
2013-05-10 00:47:00,53.3,46.6,29.99,NNW,346,0.0,0.0,78,0.00,,SCT,0.00,WeatherDisplay:10.37,2013-05-10 04:47:00,
2013-05-10 00:51:00,53.1,46.4,29.99,NNW,346,0.0,0.0,78,0.00,,SCT,0.00,WeatherDisplay:10.37,2013-05-10 04:51:00,
2013-05-10 00:52:00,53.1,46.4,29.99,NNW,346,0.0,0.0,78,0.00,,SCT,0.00,WeatherDisplay:10.37,2013-05-10 04:52:00,
2013-05-10 00:54:00,52.9,46.2,29.99,NNW,346,0.0,0.0,78,0.00,,SCT,0.00,WeatherDisplay:10.37,2013-05-10 04:54:00,
2013-05-10 00:56:00,52.9,46.2,29.99,NNW,346,0.0,0.0,78,0.00,,SCT,0.00,WeatherDisplay:10.37,2013-05-10 04:56:00,
2013-05-10 00:57:00,52.9,46.2,29.99,NNW,346,0.0,0.0,78,0.00,,SCT,0.00,WeatherDisplay:10.37,2013-05-10 04:57:00,
2013-05-10 00:59:00,52.9,46.2,29.99,NNW,346,0.0,0.0,78,0.00,,SCT,0.00,WeatherDisplay:10.37,2013-05-10 04:59:00,
2013-05-10 01:00:00,52.9,46.2,29.99,NNW,346,0.0,0.0,78,0.00,,SCT,0.00,WeatherDisplay:10.37,2013-05-10 05:00:00,
2013-05-10 01:02:00,52.9,46.2,29.99,NNW,346,0.0,0.0,78,0.00,,SCT,0.00,WeatherDisplay:10.37,2013-05-10 05:02:00,
2013-05-10 01:04:00,52.9,46.2,29.99,NNW,346,0.0,0.0,78,0.00,,SCT,0.00,WeatherDisplay:10.37,2013-05-10 05:04:00,
2013-05-10 01:06:00,52.8,46.1,29.99,NNW,346,0.0,0.0,78,0.00,,SCT,0.00,WeatherDisplay:10.37,2013-05-10 05:06:00,
2013-05-10 01:09:00,52.8,46.5,29.99,NNW,346,0.0,0.0,79,0.00,,SCT,0.00,WeatherDisplay:10.37,2013-05-10 05:09:00,
2013-05-10 01:10:00,52.8,46.5,29.99,NNW,346,0.0,0.0,79,0.00,,SCT,0.00,WeatherDisplay:10.37,2013-05-10 05:10:00,
2013-05-10 01:11:00,52.8,46.5,29.99,NNW,346,0.0,0.0,79,0.00,,SCT,0.00,WeatherDisplay:10.37,2013-05-10 05:11:00,
2013-05-10 01:12:00,52.8,46.5,29.99,NNW,346,0.0,0.0,79,0.00,,SCT,0.00,WeatherDisplay:10.37,2013-05-10 05:12:00,
2013-05-10 01:14:00,52.6,46.3,29.99,NNW,346,0.0,0.0,79,0.00,,SCT,0.00,WeatherDisplay:10.37,2013-05-10 05:14:00,
2013-05-10 01:15:00,52.6,46.3,29.99,NNW,346,0.0,0.0,79,0.00,,SCT,0.00,WeatherDisplay:10.37,2013-05-10 05:15:00,
2013-05-10 01:16:00,52.6,46.3,29.98,NNW,346,0.0,0.0,79,0.00,,SCT,0.00,WeatherDisplay:10.37,2013-05-10 05:16:00,
2013-05-10 01:17:00,52.6,46.3,29.98,NNW,346,0.0,0.0,79,0.00,,SCT,0.00,WeatherDisplay:10.37,2013-05-10 05:17:00,
2013-05-10 01:20:00,52.5,46.2,29.98,NNW,346,0.0,0.0,79,0.00,,SCT,0.00,WeatherDisplay:10.37,2013-05-10 05:20:00,
2013-05-10 01:21:00,52.5,46.2,29.98,NNW,346,0.0,0.0,79,0.00,,SCT,0.00,WeatherDisplay:10.37,2013-05-10 05:21:00,
2013-05-10 01:23:00,52.5,46.2,29.98,NNW,346,0.0,0.0,79,0.00,,SCT,0.00,WeatherDisplay:10.37,2013-05-10 05:23:00,
2013-05-10 01:26:00,52.5,46.2,29.98,NNW,346,0.0,0.0,79,0.00,,SCT,0.00,WeatherDisplay:10.37,2013-05-10 05:26:00,
2013-05-10 01:28:00,52.5,46.5,29.98,NNW,346,0.0,0.0,80,0.00,,SCT,0.00,WeatherDisplay:10.37,2013-05-10 05:28:00,
2013-05-10 01:29:00,52.5,46.2,29.98,NNW,346,0.0,0.0,79,0.00,,SCT,0.00,WeatherDisplay:10.37,2013-05-10 05:29:00,
2013-05-10 01:31:00,52.6,46.3,29.98,NNW,346,0.0,0.0,79,0.00,,SCT,0.00,WeatherDisplay:10.37,2013-05-10 05:31:00,
2013-05-10 01:32:00,52.6,46.3,29.98,NNW,346,0.0,0.0,79,0.00,,SCT,0.00,WeatherDisplay:10.37,2013-05-10 05:32:00,
2013-05-10 01:34:00,52.6,46.6,29.98,NNW,346,0.0,0.0,80,0.00,,SCT,0.00,WeatherDisplay:10.37,2013-05-10 05:34:00,
2013-05-10 01:37:00,52.6,46.6,29.98,NNW,346,0.0,0.0,80,0.00,,SCT,0.00,WeatherDisplay:10.37,2013-05-10 05:37:00,
2013-05-10 01:38:00,52.6,46.6,29.98,NNW,346,0.0,0.0,80,0.00,,SCT,0.00,WeatherDisplay:10.37,2013-05-10 05:38:00,
2013-05-10 01:40:00,52.6,46.6,29.98,NNW,346,0.0,0.0,80,0.00,,SCT,0.00,WeatherDisplay:10.37,2013-05-10 05:40:00,
2013-05-10 01:41:00,52.6,46.6,29.98,NNW,346,0.0,0.0,80,0.00,,SCT,0.00,WeatherDisplay:10.37,2013-05-10 05:41:00,
2013-05-10 01:44:00,52.6,46.6,29.98,NNW,346,0.0,0.0,80,0.00,,SCT,0.00,WeatherDisplay:10.37,2013-05-10 05:44:00,
2013-05-10 01:46:00,52.5,46.5,29.98,NNW,346,0.0,0.0,80,0.00,,SCT,0.00,WeatherDisplay:10.37,2013-05-10 05:46:00,
2013-05-10 01:49:00,52.5,46.5,29.98,NNW,346,0.0,0.0,80,0.00,,SCT,0.00,WeatherDisplay:10.37,2013-05-10 05:49:00,
2013-05-10 01:50:00,52.5,46.5,29.97,NNW,346,0.0,0.0,80,0.00,,SCT,0.00,WeatherDisplay:10.37,2013-05-10 05:50:00,
2013-05-10 01:52:00,52.3,46.3,29.97,NNW,346,0.0,0.0,80,0.00,,SCT,0.00,WeatherDisplay:10.37,2013-05-10 05:52:00,
2013-05-10 01:53:00,52.3,46.3,29.97,NNW,346,0.0,0.0,80,0.00,,SCT,0.00,WeatherDisplay:10.37,2013-05-10 05:53:00,
2013-05-10 01:55:00,52.3,46.3,29.97,NNW,346,0.0,0.0,80,0.00,,SCT,0.00,WeatherDisplay:10.37,2013-05-10 05:55:00,
2013-05-10 01:58:00,52.2,46.2,29.97,NNW,346,0.0,0.0,80,0.00,,SCT,0.00,WeatherDisplay:10.37,2013-05-10 05:58:00,
2013-05-10 01:59:00,52.2,46.2,29.97,NNW,346,0.0,0.0,80,0.00,,SCT,0.00,WeatherDisplay:10.37,2013-05-10 05:59:00,
2013-05-10 02:00:00,52.2,46.2,29.97,NNW,346,0.0,0.0,80,0.00,,SCT,0.00,WeatherDisplay:10.37,2013-05-10 06:00:00,
2013-05-10 02:03:00,52.0,46.0,29.97,NNW,346,0.0,0.0,80,0.00,,SCT,0.00,WeatherDisplay:10.37,2013-05-10 06:03:00,
2013-05-10 02:04:00,52.0,46.0,29.97,NNW,346,0.0,0.0,80,0.00,,SCT,0.00,WeatherDisplay:10.37,2013-05-10 06:04:00,
2013-05-10 02:05:00,52.2,46.5,29.96,NNW,346,0.0,0.0,81,0.00,,SCT,0.00,WeatherDisplay:10.37,2013-05-10 06:05:00,
2013-05-10 02:09:00,52.2,46.5,29.96,NNW,346,0.0,0.0,81,0.00,,SCT,0.00,WeatherDisplay:10.37,2013-05-10 06:09:00,
2013-05-10 02:10:00,52.2,46.5,29.96,NNW,346,0.0,0.0,81,0.00,,SCT,0.00,WeatherDisplay:10.37,2013-05-10 06:10:00,
2013-05-10 02:11:00,52.3,46.6,29.96,NNW,346,0.0,0.0,81,0.00,,SCT,0.00,WeatherDisplay:10.37,2013-05-10 06:11:00,
2013-05-10 02:12:00,52.3,46.6,29.96,NNW,346,0.0,0.0,81,0.00,,SCT,0.00,WeatherDisplay:10.37,2013-05-10 06:12:00,
2013-05-10 02:14:00,52.3,46.6,29.96,NNW,346,0.0,0.0,81,0.00,,SCT,0.00,WeatherDisplay:10.37,2013-05-10 06:14:00,
2013-05-10 02:15:00,52.3,46.6,29.96,NNW,346,0.0,0.0,81,0.00,,SCT,0.00,WeatherDisplay:10.37,2013-05-10 06:15:00,
2013-05-10 02:17:00,52.2,46.5,29.96,NNW,346,0.0,0.0,81,0.00,,SCT,0.00,WeatherDisplay:10.37,2013-05-10 06:17:00,
2013-05-10 02:20:00,52.2,46.5,29.96,NNW,346,0.0,0.0,81,0.00,,SCT,0.00,WeatherDisplay:10.37,2013-05-10 06:20:00,
2013-05-10 02:21:00,52.2,46.5,29.96,NNW,346,0.0,0.0,81,0.00,,SCT,0.00,WeatherDisplay:10.37,2013-05-10 06:21:00,
2013-05-10 02:22:00,52.2,46.5,29.96,NNW,346,0.0,0.0,81,0.00,,SCT,0.00,WeatherDisplay:10.37,2013-05-10 06:22:00,
2013-05-10 02:23:00,52.2,46.5,29.96,NNW,346,0.0,0.0,81,0.00,,SCT,0.00,WeatherDisplay:10.37,2013-05-10 06:23:00,
2013-05-10 02:24:00,52.2,46.5,29.96,NNW,346,0.0,0.0,81,0.00,,SCT,0.00,WeatherDisplay:10.37,2013-05-10 06:24:00,
2013-05-10 02:29:00,52.0,46.3,29.96,NNW,346,0.0,0.0,81,0.00,,SCT,0.00,WeatherDisplay:10.37,2013-05-10 06:29:00,
2013-05-10 02:30:00,52.0,46.3,29.96,NNW,346,0.0,0.0,81,0.00,,SCT,0.00,WeatherDisplay:10.37,2013-05-10 06:30:00,
2013-05-10 02:31:00,52.0,46.3,29.96,NNW,346,0.0,0.0,81,0.00,,SCT,0.00,WeatherDisplay:10.37,2013-05-10 06:31:00,
2013-05-10 02:33:00,51.9,46.3,29.96,NNW,346,0.0,0.0,81,0.00,,SCT,0.00,WeatherDisplay:10.37,2013-05-10 06:33:00,
2013-05-10 02:36:00,52.0,46.3,29.96,NNW,346,0.0,0.0,81,0.00,,SCT,0.00,WeatherDisplay:10.37,2013-05-10 06:36:00,
2013-05-10 02:37:00,52.0,46.3,29.96,NNW,346,0.0,0.0,81,0.00,,SCT,0.00,WeatherDisplay:10.37,2013-05-10 06:37:00,
2013-05-10 02:38:00,52.0,46.3,29.96,NNW,346,0.0,0.0,81,0.00,,SCT,0.00,WeatherDisplay:10.37,2013-05-10 06:38:00,
2013-05-10 02:39:00,52.0,46.3,29.96,NNW,346,0.0,0.0,81,0.00,,SCT,0.00,WeatherDisplay:10.37,2013-05-10 06:39:00,
2013-05-10 02:43:00,51.9,46.3,29.95,NNW,346,0.0,0.0,81,0.00,,SCT,0.00,WeatherDisplay:10.37,2013-05-10 06:43:00,
2013-05-10 02:47:00,51.9,46.3,29.95,NNW,346,0.0,0.0,81,0.00,,SCT,0.00,WeatherDisplay:10.37,2013-05-10 06:47:00,
2013-05-10 02:48:00,51.9,46.3,29.95,NNW,346,0.0,0.0,81,0.00,,SCT,0.00,WeatherDisplay:10.37,2013-05-10 06:48:00,
2013-05-10 02:51:00,51.7,46.1,29.96,NNW,346,0.0,0.0,81,0.00,,SCT,0.00,WeatherDisplay:10.37,2013-05-10 06:51:00,
2013-05-10 02:53:00,51.7,46.1,29.96,NNW,346,0.0,0.0,81,0.00,,SCT,0.00,WeatherDisplay:10.37,2013-05-10 06:53:00,
2013-05-10 02:54:00,51.7,46.1,29.96,NNW,346,0.0,0.0,81,0.00,,SCT,0.00,WeatherDisplay:10.37,2013-05-10 06:54:00,
2013-05-10 02:55:00,51.7,46.1,29.95,NNW,346,0.0,0.0,81,0.00,,SCT,0.00,WeatherDisplay:10.37,2013-05-10 06:55:00,
2013-05-10 02:57:00,51.7,46.1,29.95,NNW,346,0.0,0.0,81,0.00,,SCT,0.00,WeatherDisplay:10.37,2013-05-10 06:57:00,
2013-05-10 03:00:00,51.6,46.0,29.95,NNW,346,0.0,0.0,81,0.00,,SCT,0.00,WeatherDisplay:10.37,2013-05-10 07:00:00,
2013-05-10 03:03:00,51.6,46.0,29.95,NNW,346,0.0,0.0,81,0.00,,SCT,0.00,WeatherDisplay:10.37,2013-05-10 07:03:00,
2013-05-10 03:08:00,51.4,46.1,29.95,NNW,346,0.0,0.0,82,0.00,,SCT,0.00,WeatherDisplay:10.37,2013-05-10 07:08:00,
2013-05-10 03:09:00,51.4,46.1,29.95,NNW,346,0.0,0.0,82,0.00,,SCT,0.00,WeatherDisplay:10.37,2013-05-10 07:09:00,
2013-05-10 03:10:00,51.4,46.1,29.95,NNW,346,0.0,0.0,82,0.00,,SCT,0.00,WeatherDisplay:10.37,2013-05-10 07:10:00,
2013-05-10 03:14:00,51.4,46.1,29.95,NNW,346,0.0,0.0,82,0.00,,SCT,0.00,WeatherDisplay:10.37,2013-05-10 07:14:00,
2013-05-10 03:15:00,51.4,46.1,29.95,NNW,346,0.0,0.0,82,0.00,,SCT,0.00,WeatherDisplay:10.37,2013-05-10 07:15:00,
2013-05-10 03:16:00,51.4,46.1,29.95,NNW,346,0.0,0.0,82,0.00,,SCT,0.00,WeatherDisplay:10.37,2013-05-10 07:16:00,
2013-05-10 03:17:00,51.4,46.1,29.95,NNW,346,0.0,0.0,82,0.00,,SCT,0.00,WeatherDisplay:10.37,2013-05-10 07:17:00,
2013-05-10 03:20:00,51.4,46.1,29.95,NNW,346,0.0,0.0,82,0.00,,SCT,0.00,WeatherDisplay:10.37,2013-05-10 07:20:00,
2013-05-10 03:25:00,51.3,46.0,29.95,NNW,346,0.0,0.0,82,0.00,,SCT,0.00,WeatherDisplay:10.37,2013-05-10 07:25:00,
2013-05-10 03:26:00,51.3,46.0,29.95,NNW,346,0.0,0.0,82,0.00,,SCT,0.00,WeatherDisplay:10.37,2013-05-10 07:26:00,
2013-05-10 03:27:00,51.3,46.0,29.95,NNW,346,0.0,0.0,82,0.00,,SCT,0.00,WeatherDisplay:10.37,2013-05-10 07:27:00,
2013-05-10 03:28:00,51.3,46.0,29.95,NNW,346,0.0,0.0,82,0.00,,SCT,0.00,WeatherDisplay:10.37,2013-05-10 07:28:00,
2013-05-10 03:31:00,51.1,45.8,29.94,NNW,346,0.0,0.0,82,0.00,,SCT,0.00,WeatherDisplay:10.37,2013-05-10 07:31:00,
2013-05-10 03:33:00,51.0,45.7,29.94,NNW,346,0.0,0.0,82,0.00,,SCT,0.00,WeatherDisplay:10.37,2013-05-10 07:33:00,
2013-05-10 03:34:00,51.0,45.7,29.94,NNW,346,0.0,0.0,82,0.00,,SCT,0.00,WeatherDisplay:10.37,2013-05-10 07:34:00,
2013-05-10 03:35:00,51.0,45.7,29.94,NNW,346,0.0,0.0,82,0.00,,SCT,0.00,WeatherDisplay:10.37,2013-05-10 07:35:00,
2013-05-10 03:37:00,51.0,45.7,29.94,NNW,346,0.0,0.0,82,0.00,,SCT,0.00,WeatherDisplay:10.37,2013-05-10 07:37:00,
2013-05-10 03:38:00,50.8,45.5,29.94,NNW,346,0.0,0.0,82,0.00,,SCT,0.00,WeatherDisplay:10.37,2013-05-10 07:38:00,
2013-05-10 03:41:00,50.8,45.5,29.94,NNW,346,0.0,0.0,82,0.00,,SCT,0.00,WeatherDisplay:10.37,2013-05-10 07:41:00,
2013-05-10 03:43:00,50.8,45.8,29.94,NNW,346,0.0,0.0,83,0.00,,SCT,0.00,WeatherDisplay:10.37,2013-05-10 07:43:00,
2013-05-10 03:44:00,50.8,45.8,29.94,NNW,346,0.0,0.0,83,0.00,,SCT,0.00,WeatherDisplay:10.37,2013-05-10 07:44:00,
2013-05-10 03:48:00,50.7,45.7,29.94,NNW,346,0.0,0.0,83,0.00,,SCT,0.00,WeatherDisplay:10.37,2013-05-10 07:48:00,
2013-05-10 03:49:00,50.7,45.4,29.94,NNW,346,0.0,0.0,82,0.00,,SCT,0.00,WeatherDisplay:10.37,2013-05-10 07:49:00,
2013-05-10 03:50:00,50.7,45.4,29.94,NNW,346,0.0,0.0,82,0.00,,SCT,0.00,WeatherDisplay:10.37,2013-05-10 07:50:00,
2013-05-10 03:51:00,50.5,45.2,29.94,NNW,346,0.0,0.0,82,0.00,,SCT,0.00,WeatherDisplay:10.37,2013-05-10 07:51:00,
2013-05-10 03:55:00,50.5,45.2,29.94,NNW,346,0.0,0.0,82,0.00,,SCT,0.00,WeatherDisplay:10.37,2013-05-10 07:55:00,
2013-05-10 03:58:00,50.5,45.5,29.94,NNW,346,0.0,0.0,83,0.00,,SCT,0.00,WeatherDisplay:10.37,2013-05-10 07:58:00,
2013-05-10 03:59:00,50.5,45.5,29.94,NNW,346,0.0,0.0,83,0.00,,SCT,0.00,WeatherDisplay:10.37,2013-05-10 07:59:00,
2013-05-10 04:01:00,50.4,45.4,29.94,NNW,346,0.0,0.0,83,0.00,,SCT,0.00,WeatherDisplay:10.37,2013-05-10 08:01:00,
2013-05-10 04:02:00,50.4,45.4,29.94,NNW,346,0.0,0.0,83,0.00,,SCT,0.00,WeatherDisplay:10.37,2013-05-10 08:02:00,
2013-05-10 04:03:00,50.4,45.4,29.94,NNW,346,0.0,0.0,83,0.00,,SCT,0.00,WeatherDisplay:10.37,2013-05-10 08:03:00,
2013-05-10 04:05:00,50.4,45.4,29.94,NNW,346,0.0,0.0,83,0.00,,SCT,0.00,WeatherDisplay:10.37,2013-05-10 08:05:00,
2013-05-10 04:07:00,50.2,44.9,29.94,NNW,346,0.0,0.0,82,0.00,,SCT,0.00,WeatherDisplay:10.37,2013-05-10 08:07:00,
2013-05-10 04:08:00,50.2,44.9,29.94,NNW,346,0.0,0.0,82,0.00,,SCT,0.00,WeatherDisplay:10.37,2013-05-10 08:08:00,
2013-05-10 04:09:00,50.2,44.9,29.94,NNW,346,0.0,0.0,82,0.00,,SCT,0.00,WeatherDisplay:10.37,2013-05-10 08:09:00,
2013-05-10 04:11:00,50.2,44.9,29.94,NNW,346,0.0,0.0,82,0.00,,SCT,0.00,WeatherDisplay:10.37,2013-05-10 08:11:00,
2013-05-10 04:14:00,50.1,44.8,29.94,NNW,346,0.0,0.0,82,0.00,,SCT,0.00,WeatherDisplay:10.37,2013-05-10 08:14:00,
2013-05-10 04:16:00,50.1,45.1,29.94,NNW,346,0.0,0.0,83,0.00,,SCT,0.00,WeatherDisplay:10.37,2013-05-10 08:16:00,
2013-05-10 04:20:00,50.2,45.2,29.94,NNW,346,0.0,0.0,83,0.00,,SCT,0.00,WeatherDisplay:10.37,2013-05-10 08:20:00,
2013-05-10 04:21:00,50.2,45.2,29.94,NNW,346,0.0,0.0,83,0.00,,SCT,0.00,WeatherDisplay:10.37,2013-05-10 08:21:00,
2013-05-10 04:22:00,50.2,45.2,29.94,NNW,346,0.0,0.0,83,0.00,,SCT,0.00,WeatherDisplay:10.37,2013-05-10 08:22:00,
2013-05-10 04:23:00,50.2,45.2,29.94,NNW,346,0.0,0.0,83,0.00,,SCT,0.00,WeatherDisplay:10.37,2013-05-10 08:23:00,
2013-05-10 04:25:00,50.2,45.2,29.94,NNW,346,0.0,0.0,83,0.00,,SCT,0.00,WeatherDisplay:10.37,2013-05-10 08:25:00,
2013-05-10 04:26:00,50.4,45.4,29.94,NNW,346,0.0,0.0,83,0.00,,SCT,0.00,WeatherDisplay:10.37,2013-05-10 08:26:00,
2013-05-10 04:27:00,50.4,45.4,29.94,NNW,346,0.0,0.0,83,0.00,,SCT,0.00,WeatherDisplay:10.37,2013-05-10 08:27:00,
2013-05-10 04:30:00,50.4,45.4,29.94,NNW,346,0.0,0.0,83,0.00,,SCT,0.00,WeatherDisplay:10.37,2013-05-10 08:30:00,
2013-05-10 04:31:00,50.2,45.2,29.94,NNW,346,0.0,0.0,83,0.00,,SCT,0.00,WeatherDisplay:10.37,2013-05-10 08:31:00,
2013-05-10 04:32:00,50.2,45.2,29.94,NNW,346,0.0,0.0,83,0.00,,SCT,0.00,WeatherDisplay:10.37,2013-05-10 08:32:00,
2013-05-10 04:33:00,50.2,45.2,29.94,NNW,346,0.0,0.0,83,0.00,,SCT,0.00,WeatherDisplay:10.37,2013-05-10 08:33:00,
2013-05-10 04:36:00,50.1,45.1,29.94,NNW,346,0.0,0.0,83,0.00,,SCT,0.00,WeatherDisplay:10.37,2013-05-10 08:36:00,
2013-05-10 04:38:00,50.1,45.1,29.94,NNW,346,0.0,0.0,83,0.00,,SCT,0.00,WeatherDisplay:10.37,2013-05-10 08:38:00,
2013-05-10 04:40:00,49.9,44.9,29.94,NNW,346,0.0,0.0,83,0.00,,SCT,0.00,WeatherDisplay:10.37,2013-05-10 08:40:00,
2013-05-10 04:41:00,49.9,44.9,29.94,NNW,346,0.0,0.0,83,0.00,,SCT,0.00,WeatherDisplay:10.37,2013-05-10 08:41:00,
2013-05-10 04:42:00,49.9,44.9,29.94,NNW,346,0.0,0.0,83,0.00,,SCT,0.00,WeatherDisplay:10.37,2013-05-10 08:42:00,
2013-05-10 04:45:00,49.8,44.8,29.94,NNW,346,0.0,0.0,83,0.00,,SCT,0.00,WeatherDisplay:10.37,2013-05-10 08:45:00,
2013-05-10 04:47:00,49.8,44.8,29.94,NNW,346,0.0,0.0,83,0.00,,SCT,0.00,WeatherDisplay:10.37,2013-05-10 08:47:00,
2013-05-10 04:48:00,49.8,44.8,29.94,NNW,346,0.0,0.0,83,0.00,,SCT,0.00,WeatherDisplay:10.37,2013-05-10 08:48:00,
2013-05-10 04:49:00,49.8,45.2,29.94,NNW,346,0.0,0.0,84,0.00,,SCT,0.00,WeatherDisplay:10.37,2013-05-10 08:49:00,
2013-05-10 04:51:00,49.8,45.2,29.93,NNW,346,0.0,0.0,84,0.00,,SCT,0.00,WeatherDisplay:10.37,2013-05-10 08:51:00,
2013-05-10 04:53:00,49.8,45.2,29.93,NNW,346,0.0,0.0,84,0.00,,SCT,0.00,WeatherDisplay:10.37,2013-05-10 08:53:00,
2013-05-10 04:54:00,49.9,45.3,29.93,NNW,346,0.0,0.0,84,0.00,,SCT,0.00,WeatherDisplay:10.37,2013-05-10 08:54:00,
2013-05-10 04:55:00,49.9,45.3,29.93,NNW,346,0.0,0.0,84,0.00,,SCT,0.00,WeatherDisplay:10.37,2013-05-10 08:55:00,
2013-05-10 04:56:00,49.9,45.3,29.93,NNW,346,0.0,0.0,84,0.00,,SCT,0.00,WeatherDisplay:10.37,2013-05-10 08:56:00,
2013-05-10 04:57:00,49.9,45.3,29.93,NNW,346,0.0,0.0,84,0.00,,SCT,0.00,WeatherDisplay:10.37,2013-05-10 08:57:00,
2013-05-10 04:59:00,49.9,45.3,29.93,NNW,346,0.0,0.0,84,0.00,,SCT,0.00,WeatherDisplay:10.37,2013-05-10 08:59:00,
2013-05-10 05:01:00,49.9,45.3,29.93,NNW,346,0.0,0.0,84,0.00,,SCT,0.00,WeatherDisplay:10.37,2013-05-10 09:01:00,
2013-05-10 05:06:00,49.8,45.2,29.93,NNW,346,0.0,0.0,84,0.00,,SCT,0.00,WeatherDisplay:10.37,2013-05-10 09:06:00,
2013-05-10 05:07:00,49.8,45.2,29.93,NNW,346,0.0,0.0,84,0.00,,SCT,0.00,WeatherDisplay:10.37,2013-05-10 09:07:00,
2013-05-10 05:08:00,49.8,45.2,29.93,NNW,346,0.0,0.0,84,0.00,,SCT,0.00,WeatherDisplay:10.37,2013-05-10 09:08:00,
2013-05-10 05:11:00,49.6,45.0,29.93,NNW,346,0.0,0.0,84,0.00,,SCT,0.00,WeatherDisplay:10.37,2013-05-10 09:11:00,
2013-05-10 05:13:00,49.6,45.0,29.93,NNW,346,0.0,0.0,84,0.00,,SCT,0.00,WeatherDisplay:10.37,2013-05-10 09:13:00,
2013-05-10 05:16:00,49.6,45.0,29.93,NNW,346,0.0,0.0,84,0.00,,SCT,0.00,WeatherDisplay:10.37,2013-05-10 09:16:00,
2013-05-10 05:17:00,49.6,45.0,29.93,NNW,346,0.0,0.0,84,0.00,,SCT,0.00,WeatherDisplay:10.37,2013-05-10 09:17:00,
2013-05-10 05:20:00,49.5,44.9,29.93,NNW,346,0.0,0.0,84,0.00,,SCT,0.00,WeatherDisplay:10.37,2013-05-10 09:20:00,
2013-05-10 05:21:00,49.5,44.9,29.93,NNW,346,0.0,0.0,84,0.00,,SCT,0.00,WeatherDisplay:10.37,2013-05-10 09:21:00,
2013-05-10 05:26:00,49.4,44.8,29.93,NNW,346,0.0,0.0,84,0.00,,SCT,0.00,WeatherDisplay:10.37,2013-05-10 09:26:00,
2013-05-10 05:27:00,49.4,44.8,29.93,NNW,346,0.0,0.0,84,0.00,,SCT,0.00,WeatherDisplay:10.37,2013-05-10 09:27:00,
2013-05-10 05:28:00,49.4,44.8,29.93,NNW,346,0.0,0.0,84,0.00,,SCT,0.00,WeatherDisplay:10.37,2013-05-10 09:28:00,
2013-05-10 05:31:00,49.4,44.8,29.93,NNW,346,0.0,0.0,84,0.00,,SCT,0.00,WeatherDisplay:10.37,2013-05-10 09:31:00,
2013-05-10 05:32:00,49.4,44.8,29.94,NNW,346,0.0,0.0,84,0.00,,SCT,0.00,WeatherDisplay:10.37,2013-05-10 09:32:00,
2013-05-10 05:33:00,49.4,44.8,29.94,NNW,346,0.0,0.0,84,0.00,,SCT,0.00,WeatherDisplay:10.37,2013-05-10 09:33:00,
2013-05-10 05:36:00,49.4,44.8,29.94,NNW,346,0.0,0.0,84,0.00,,SCT,0.00,WeatherDisplay:10.37,2013-05-10 09:36:00,
2013-05-10 05:38:00,49.2,44.6,29.94,NNW,346,0.0,0.0,84,0.00,,SCT,0.00,WeatherDisplay:10.37,2013-05-10 09:38:00,
2013-05-10 05:39:00,49.2,44.6,29.94,NNW,346,0.0,0.0,84,0.00,,SCT,0.00,WeatherDisplay:10.37,2013-05-10 09:39:00,
2013-05-10 05:40:00,49.2,44.6,29.94,NNW,346,0.0,0.0,84,0.00,,SCT,0.00,WeatherDisplay:10.37,2013-05-10 09:40:00,
2013-05-10 05:41:00,49.2,44.6,29.94,NNW,346,0.0,0.0,84,0.00,,SCT,0.00,WeatherDisplay:10.37,2013-05-10 09:41:00,
2013-05-10 05:44:00,49.2,44.6,29.94,NNW,346,0.0,0.0,84,0.00,,SCT,0.00,WeatherDisplay:10.37,2013-05-10 09:44:00,
2013-05-10 05:45:00,49.2,44.6,29.94,NNW,346,0.0,0.0,84,0.00,,SCT,0.00,WeatherDisplay:10.37,2013-05-10 09:45:00,
2013-05-10 05:46:00,49.1,44.5,29.94,NNW,346,0.0,0.0,84,0.00,,SCT,0.00,WeatherDisplay:10.37,2013-05-10 09:46:00,
2013-05-10 05:48:00,49.1,44.5,29.94,NNW,346,0.0,0.0,84,0.00,,SCT,0.00,WeatherDisplay:10.37,2013-05-10 09:48:00,
2013-05-10 05:50:00,49.1,44.5,29.94,NNW,346,0.0,0.0,84,0.00,,SCT,0.00,WeatherDisplay:10.37,2013-05-10 09:50:00,
2013-05-10 05:51:00,48.9,44.3,29.94,NNW,346,0.0,0.0,84,0.00,,SCT,0.00,WeatherDisplay:10.37,2013-05-10 09:51:00,
2013-05-10 05:52:00,48.9,44.3,29.94,NNW,346,0.0,0.0,84,0.00,,SCT,0.00,WeatherDisplay:10.37,2013-05-10 09:52:00,
2013-05-10 05:53:00,48.9,44.3,29.94,NNW,346,0.0,0.0,84,0.00,,SCT,0.00,WeatherDisplay:10.37,2013-05-10 09:53:00,
2013-05-10 05:57:00,48.9,44.3,29.94,NNW,346,0.0,0.0,84,0.00,,SCT,0.00,WeatherDisplay:10.37,2013-05-10 09:57:00,
2013-05-10 05:58:00,48.8,44.2,29.94,NNW,346,0.0,0.0,84,0.00,,SCT,0.00,WeatherDisplay:10.37,2013-05-10 09:58:00,
2013-05-10 05:59:00,48.8,44.2,29.94,NNW,346,0.0,0.0,84,0.00,,SCT,0.00,WeatherDisplay:10.37,2013-05-10 09:59:00,
2013-05-10 06:01:00,48.8,44.2,29.94,NNW,346,0.0,0.0,84,0.00,CLR,SCT,0.00,WeatherDisplay:10.37,2013-05-10 10:01:00,
2013-05-10 06:02:00,48.8,44.2,29.94,NNW,346,0.0,0.0,84,0.00,CLR,SCT,0.00,WeatherDisplay:10.37,2013-05-10 10:02:00,
2013-05-10 06:04:00,48.6,44.0,29.93,NNW,346,0.0,0.0,84,0.00,CLR,SCT,0.00,WeatherDisplay:10.37,2013-05-10 10:04:00,
2013-05-10 06:05:00,48.6,44.0,29.93,NNW,346,0.0,0.0,84,0.00,CLR,SCT,0.00,WeatherDisplay:10.37,2013-05-10 10:05:00,
2013-05-10 06:07:00,48.6,44.0,29.93,NNW,346,0.0,0.0,84,0.00,CLR,SCT,0.00,WeatherDisplay:10.37,2013-05-10 10:07:00,
2013-05-10 06:10:00,48.6,44.0,29.93,NNW,346,0.0,0.0,84,0.00,CLR,SCT,0.00,WeatherDisplay:10.37,2013-05-10 10:10:00,
2013-05-10 06:13:00,48.6,44.0,29.94,NNW,346,0.0,0.0,84,0.00,CLR,SCT,0.00,WeatherDisplay:10.37,2013-05-10 10:13:00,
2013-05-10 06:14:00,48.6,44.3,29.94,NNW,346,0.0,0.0,85,0.00,CLR,SCT,0.00,WeatherDisplay:10.37,2013-05-10 10:14:00,
2013-05-10 06:15:00,48.6,44.0,29.94,NNW,346,0.0,0.0,84,0.00,CLR,SCT,0.00,WeatherDisplay:10.37,2013-05-10 10:15:00,
2013-05-10 06:20:00,48.6,44.0,29.93,NNW,346,0.0,0.0,84,0.00,CLR,SCT,0.00,WeatherDisplay:10.37,2013-05-10 10:20:00,
2013-05-10 06:21:00,48.6,44.0,29.93,NNW,346,0.0,0.0,84,0.00,CLR,SCT,0.00,WeatherDisplay:10.37,2013-05-10 10:21:00,
2013-05-10 06:22:00,48.6,44.0,29.93,NNW,346,0.0,0.0,84,0.00,CLR,SCT,0.00,WeatherDisplay:10.37,2013-05-10 10:22:00,
2013-05-10 06:23:00,48.5,43.9,29.94,NNW,346,0.0,0.0,84,0.00,CLR,SCT,0.00,WeatherDisplay:10.37,2013-05-10 10:23:00,
2013-05-10 06:25:00,48.5,43.9,29.93,NNW,346,0.0,0.0,84,0.00,CLR,SCT,0.00,WeatherDisplay:10.37,2013-05-10 10:25:00,
2013-05-10 06:27:00,48.5,43.9,29.93,NNW,346,0.0,0.0,84,0.00,CLR,SCT,0.00,WeatherDisplay:10.37,2013-05-10 10:27:00,
2013-05-10 06:29:00,48.5,43.9,29.93,NNW,346,0.0,0.0,84,0.00,CLR,SCT,0.00,WeatherDisplay:10.37,2013-05-10 10:29:00,
2013-05-10 06:30:00,48.5,44.2,29.93,NNW,346,0.0,0.0,85,0.00,CLR,SCT,0.00,WeatherDisplay:10.37,2013-05-10 10:30:00,
2013-05-10 06:33:00,48.5,43.9,29.94,NNW,346,0.0,0.0,84,0.00,CLR,SCT,0.00,WeatherDisplay:10.37,2013-05-10 10:33:00,
2013-05-10 06:36:00,48.5,44.2,29.93,NNW,348,0.0,0.0,85,0.00,CLR,SCT,0.00,WeatherDisplay:10.37,2013-05-10 10:36:00,
2013-05-10 06:38:00,48.5,44.2,29.93,NNW,348,0.0,0.0,85,0.00,CLR,SCT,0.00,WeatherDisplay:10.37,2013-05-10 10:38:00,
2013-05-10 06:42:00,48.3,43.7,29.94,NNW,348,0.0,0.0,84,0.00,CLR,SCT,0.00,WeatherDisplay:10.37,2013-05-10 10:42:00,
2013-05-10 06:43:00,48.5,44.2,29.94,NNW,348,0.0,0.0,85,0.00,CLR,SCT,0.00,WeatherDisplay:10.37,2013-05-10 10:43:00,
2013-05-10 06:45:00,48.5,44.2,29.93,NNW,348,0.0,0.0,85,0.00,CLR,SCT,0.00,WeatherDisplay:10.37,2013-05-10 10:45:00,
2013-05-10 06:48:00,48.5,44.2,29.93,NNW,348,0.0,0.0,85,0.00,CLR,SCT,0.00,WeatherDisplay:10.37,2013-05-10 10:48:00,
2013-05-10 06:49:00,48.5,44.2,29.93,NNW,348,0.0,0.0,85,0.00,CLR,SCT,0.00,WeatherDisplay:10.37,2013-05-10 10:49:00,
2013-05-10 06:50:00,48.5,44.2,29.93,NNW,348,0.0,0.0,85,0.00,CLR,SCT,0.00,WeatherDisplay:10.37,2013-05-10 10:50:00,
2013-05-10 06:54:00,48.5,44.2,29.94,NNW,348,0.0,0.0,85,0.00,CLR,SCT,0.00,WeatherDisplay:10.37,2013-05-10 10:54:00,
2013-05-10 06:57:00,48.6,44.3,29.94,NNW,348,0.0,0.0,85,0.00,CLR,SCT,0.00,WeatherDisplay:10.37,2013-05-10 10:57:00,
2013-05-10 06:58:00,48.6,44.3,29.94,NNW,348,0.0,0.0,85,0.00,CLR,SCT,0.00,WeatherDisplay:10.37,2013-05-10 10:58:00,
2013-05-10 07:02:00,48.8,44.5,29.94,NNW,348,0.0,0.0,85,0.00,CLR,SCT,0.00,WeatherDisplay:10.37,2013-05-10 11:02:00,
2013-05-10 07:05:00,48.9,44.6,29.94,NNW,348,0.0,0.0,85,0.00,CLR,SCT,0.00,WeatherDisplay:10.37,2013-05-10 11:05:00,
2013-05-10 07:07:00,49.1,44.8,29.94,NNW,348,0.0,0.0,85,0.00,CLR,SCT,0.00,WeatherDisplay:10.37,2013-05-10 11:07:00,
2013-05-10 07:09:00,49.2,44.9,29.94,NNW,348,0.0,0.0,85,0.00,CLR,SCT,0.00,WeatherDisplay:10.37,2013-05-10 11:09:00,
2013-05-10 07:10:00,49.2,44.9,29.94,NNW,348,0.0,0.0,85,0.00,CLR,SCT,0.00,WeatherDisplay:10.37,2013-05-10 11:10:00,
2013-05-10 07:12:00,49.4,45.1,29.94,NNW,348,0.0,0.0,85,0.00,CLR,SCT,0.00,WeatherDisplay:10.37,2013-05-10 11:12:00,
2013-05-10 07:14:00,49.5,45.2,29.94,North,349,0.0,0.0,85,0.00,CLR,SCT,0.00,WeatherDisplay:10.37,2013-05-10 11:14:00,
2013-05-10 07:15:00,49.6,45.3,29.94,North,5,0.0,0.0,85,0.00,CLR,SCT,0.00,WeatherDisplay:10.37,2013-05-10 11:15:00,
2013-05-10 07:16:00,49.6,45.3,29.94,North,5,0.0,0.0,85,0.00,CLR,SCT,0.00,WeatherDisplay:10.37,2013-05-10 11:16:00,
2013-05-10 07:19:00,49.9,45.6,29.94,North,355,0.0,0.0,85,0.00,CLR,SCT,0.00,WeatherDisplay:10.37,2013-05-10 11:19:00,
2013-05-10 07:21:00,50.1,45.8,29.94,North,355,0.0,0.0,85,0.00,CLR,SCT,0.00,WeatherDisplay:10.37,2013-05-10 11:21:00,
2013-05-10 07:23:00,50.4,46.1,29.94,North,355,0.0,0.0,85,0.00,CLR,SCT,0.00,WeatherDisplay:10.37,2013-05-10 11:23:00,
2013-05-10 07:24:00,50.4,46.4,29.94,North,355,0.0,0.0,86,0.00,CLR,SCT,0.00,WeatherDisplay:10.37,2013-05-10 11:24:00,
2013-05-10 07:25:00,50.5,46.5,29.94,North,355,0.0,0.0,86,0.00,CLR,SCT,0.00,WeatherDisplay:10.37,2013-05-10 11:25:00,
2013-05-10 07:26:00,50.5,46.5,29.94,North,355,0.0,0.0,86,0.00,CLR,SCT,0.00,WeatherDisplay:10.37,2013-05-10 11:26:00,
2013-05-10 07:28:00,50.8,46.8,29.94,North,355,0.0,0.0,86,0.00,CLR,SCT,0.00,WeatherDisplay:10.37,2013-05-10 11:28:00,
2013-05-10 07:29:00,51.0,47.0,29.94,North,355,0.0,0.0,86,0.00,CLR,SCT,0.00,WeatherDisplay:10.37,2013-05-10 11:29:00,
2013-05-10 07:31:00,51.0,47.0,29.94,North,355,0.0,0.0,86,0.00,CLR,SCT,0.00,WeatherDisplay:10.37,2013-05-10 11:31:00,
2013-05-10 07:33:00,51.3,47.3,29.94,North,355,0.0,0.0,86,0.00,CLR,SCT,0.00,WeatherDisplay:10.37,2013-05-10 11:33:00,
2013-05-10 07:34:00,51.4,47.4,29.94,North,355,0.0,0.0,86,0.00,CLR,SCT,0.00,WeatherDisplay:10.37,2013-05-10 11:34:00,
2013-05-10 07:37:00,51.7,47.6,29.93,North,355,0.0,0.0,86,0.00,CLR,SCT,0.00,WeatherDisplay:10.37,2013-05-10 11:37:00,
2013-05-10 07:39:00,52.0,47.9,29.93,North,355,0.0,0.0,86,0.00,CLR,SCT,0.00,WeatherDisplay:10.37,2013-05-10 11:39:00,
2013-05-10 07:40:00,52.2,48.1,29.93,North,355,0.0,0.0,86,0.00,CLR,SCT,0.00,WeatherDisplay:10.37,2013-05-10 11:40:00,
2013-05-10 07:41:00,52.2,48.1,29.93,North,355,0.0,0.0,86,0.00,CLR,SCT,0.00,WeatherDisplay:10.37,2013-05-10 11:41:00,
2013-05-10 07:46:00,52.8,48.7,29.93,NNW,331,0.0,0.0,86,0.00,CLR,SCT,0.00,WeatherDisplay:10.37,2013-05-10 11:46:00,
2013-05-10 07:47:00,52.8,48.7,29.93,NNE,28,0.0,0.0,86,0.00,CLR,SCT,0.00,WeatherDisplay:10.37,2013-05-10 11:47:00,
2013-05-10 07:48:00,52.9,48.8,29.93,NNE,30,0.0,0.0,86,0.00,CLR,SCT,0.00,WeatherDisplay:10.37,2013-05-10 11:48:00,
2013-05-10 07:49:00,52.9,48.8,29.93,NNE,30,0.0,0.0,86,0.00,CLR,SCT,0.00,WeatherDisplay:10.37,2013-05-10 11:49:00,
2013-05-10 07:50:00,53.1,49.0,29.93,NNE,30,0.0,0.0,86,0.00,CLR,SCT,0.00,WeatherDisplay:10.37,2013-05-10 11:50:00,
2013-05-10 07:52:00,53.2,49.1,29.93,NNE,29,0.0,0.0,86,0.00,CLR,SCT,0.00,WeatherDisplay:10.37,2013-05-10 11:52:00,
2013-05-10 07:54:00,53.3,49.2,29.93,NNE,29,0.0,0.0,86,0.00,CLR,SCT,0.00,WeatherDisplay:10.37,2013-05-10 11:54:00,
2013-05-10 07:56:00,53.6,49.5,29.93,NW,318,0.0,0.0,86,0.00,CLR,SCT,0.00,WeatherDisplay:10.37,2013-05-10 11:56:00,
2013-05-10 07:58:00,53.8,49.7,29.93,NW,318,0.0,0.0,86,0.00,CLR,SCT,0.00,WeatherDisplay:10.37,2013-05-10 11:58:00,
2013-05-10 07:59:00,53.9,49.8,29.93,NW,318,0.0,0.0,86,0.00,CLR,SCT,0.00,WeatherDisplay:10.37,2013-05-10 11:59:00,
2013-05-10 08:01:00,54.1,50.0,29.93,NW,318,0.0,0.0,86,0.00,CLR,SCT,0.00,WeatherDisplay:10.37,2013-05-10 12:01:00,
2013-05-10 08:02:00,54.2,50.1,29.93,NW,318,0.0,0.0,86,0.00,CLR,SCT,0.00,WeatherDisplay:10.37,2013-05-10 12:02:00,
2013-05-10 08:04:00,54.5,50.4,29.93,NW,317,0.0,0.0,86,0.00,CLR,SCT,0.00,WeatherDisplay:10.37,2013-05-10 12:04:00,
2013-05-10 08:05:00,54.5,50.7,29.93,NW,317,0.0,0.0,87,0.00,CLR,SCT,0.00,WeatherDisplay:10.37,2013-05-10 12:05:00,
2013-05-10 08:09:00,55.0,50.9,29.94,NW,317,0.0,0.0,86,0.00,CLR,SCT,0.00,WeatherDisplay:10.37,2013-05-10 12:09:00,
2013-05-10 08:11:00,55.1,51.0,29.94,NW,317,0.0,0.0,86,0.00,CLR,SCT,0.00,WeatherDisplay:10.37,2013-05-10 12:11:00,
2013-05-10 08:12:00,55.3,51.2,29.94,NW,317,0.0,0.0,86,0.00,CLR,SCT,0.00,WeatherDisplay:10.37,2013-05-10 12:12:00,
2013-05-10 08:14:00,55.6,51.5,29.94,NW,317,0.0,0.0,86,0.00,CLR,SCT,0.00,WeatherDisplay:10.37,2013-05-10 12:14:00,
2013-05-10 08:15:00,55.6,51.5,29.94,NW,317,0.0,0.0,86,0.00,CLR,SCT,0.00,WeatherDisplay:10.37,2013-05-10 12:15:00,
2013-05-10 08:17:00,55.9,51.8,29.94,NW,317,0.0,0.0,86,0.00,CLR,SCT,0.00,WeatherDisplay:10.37,2013-05-10 12:17:00,
2013-05-10 08:21:00,56.2,52.4,29.94,NW,317,0.0,0.0,87,0.00,CLR,SCT,0.00,WeatherDisplay:10.37,2013-05-10 12:21:00,
2013-05-10 08:23:00,56.5,52.7,29.93,NW,317,0.0,0.0,87,0.00,CLR,SCT,0.00,WeatherDisplay:10.37,2013-05-10 12:23:00,
2013-05-10 08:25:00,56.6,52.8,29.93,NW,318,0.0,0.0,87,0.00,CLR,SCT,0.00,WeatherDisplay:10.37,2013-05-10 12:25:00,
2013-05-10 08:28:00,57.0,53.2,29.93,NW,317,0.0,0.0,87,0.00,CLR,SCT,0.00,WeatherDisplay:10.37,2013-05-10 12:28:00,
2013-05-10 08:29:00,57.0,53.2,29.93,NW,318,0.0,0.0,87,0.00,CLR,SCT,0.00,WeatherDisplay:10.37,2013-05-10 12:29:00,
2013-05-10 08:31:00,57.3,53.5,29.93,NW,317,0.0,0.0,87,0.00,CLR,SCT,0.00,WeatherDisplay:10.37,2013-05-10 12:31:00,
2013-05-10 08:34:00,57.6,53.8,29.93,NW,317,0.0,0.0,87,0.00,CLR,SCT,0.00,WeatherDisplay:10.37,2013-05-10 12:34:00,
2013-05-10 08:35:00,57.8,54.0,29.93,NW,317,0.0,0.0,87,0.00,CLR,SCT,0.00,WeatherDisplay:10.37,2013-05-10 12:35:00,
2013-05-10 08:36:00,58.0,54.2,29.93,NW,317,0.0,0.0,87,0.00,CLR,SCT,0.00,WeatherDisplay:10.37,2013-05-10 12:36:00,
2013-05-10 08:37:00,58.1,53.9,29.93,NW,317,0.0,0.0,86,0.00,CLR,SCT,0.00,WeatherDisplay:10.37,2013-05-10 12:37:00,
2013-05-10 08:41:00,58.4,54.2,29.93,NW,317,0.0,0.0,86,0.00,CLR,SCT,0.00,WeatherDisplay:10.37,2013-05-10 12:41:00,
2013-05-10 08:42:00,58.4,54.2,29.93,NW,317,0.0,0.0,86,0.00,CLR,SCT,0.00,WeatherDisplay:10.37,2013-05-10 12:42:00,
2013-05-10 08:45:00,58.7,54.5,29.93,NW,317,0.0,0.0,86,0.00,CLR,SCT,0.00,WeatherDisplay:10.37,2013-05-10 12:45:00,
2013-05-10 08:46:00,58.9,54.7,29.93,NW,317,0.0,0.0,86,0.00,CLR,SCT,0.00,WeatherDisplay:10.37,2013-05-10 12:46:00,
2013-05-10 08:47:00,58.9,54.7,29.93,NW,317,0.0,0.0,86,0.00,CLR,SCT,0.00,WeatherDisplay:10.37,2013-05-10 12:47:00,
2013-05-10 08:49:00,59.0,54.8,29.93,NW,317,0.0,0.0,86,0.00,CLR,SCT,0.00,WeatherDisplay:10.37,2013-05-10 12:49:00,
2013-05-10 08:51:00,59.2,55.0,29.93,NW,317,0.0,0.0,86,0.00,CLR,SCT,0.00,WeatherDisplay:10.37,2013-05-10 12:51:00,
2013-05-10 08:53:00,59.5,55.3,29.93,NW,317,0.0,0.0,86,0.00,CLR,SCT,0.00,WeatherDisplay:10.37,2013-05-10 12:53:00,
2013-05-10 08:56:00,59.8,55.6,29.93,NW,313,0.0,0.0,86,0.00,CLR,SCT,0.00,WeatherDisplay:10.37,2013-05-10 12:56:00,
2013-05-10 08:57:00,59.9,55.7,29.93,NW,313,0.0,0.0,86,0.00,CLR,SCT,0.00,WeatherDisplay:10.37,2013-05-10 12:57:00,
2013-05-10 08:59:00,60.2,56.0,29.93,NW,313,0.0,0.0,86,0.00,CLR,SCT,0.00,WeatherDisplay:10.37,2013-05-10 12:59:00,
2013-05-10 09:00:00,60.2,56.0,29.93,NW,313,0.0,0.0,86,0.00,CLR,SCT,0.00,WeatherDisplay:10.37,2013-05-10 13:00:00,
2013-05-10 09:01:00,60.4,56.2,29.93,NW,313,0.0,0.0,86,0.00,CLR,SCT,0.00,WeatherDisplay:10.37,2013-05-10 13:01:00,
2013-05-10 09:02:00,60.5,56.3,29.93,NW,313,0.0,0.0,86,0.00,CLR,SCT,0.00,WeatherDisplay:10.37,2013-05-10 13:02:00,
2013-05-10 09:03:00,60.7,56.5,29.93,NW,313,0.0,0.0,86,0.00,CLR,SCT,0.00,WeatherDisplay:10.37,2013-05-10 13:03:00,
2013-05-10 09:05:00,60.9,56.7,29.93,NW,313,0.0,0.0,86,0.00,CLR,SCT,0.00,WeatherDisplay:10.37,2013-05-10 13:05:00,
2013-05-10 09:08:00,61.3,57.1,29.94,NW,313,0.0,0.0,86,0.00,CLR,SCT,0.00,WeatherDisplay:10.37,2013-05-10 13:08:00,
2013-05-10 09:09:00,61.3,57.1,29.93,NW,313,0.0,0.0,86,0.00,CLR,SCT,0.00,WeatherDisplay:10.37,2013-05-10 13:09:00,
2013-05-10 09:10:00,61.5,57.3,29.93,NW,314,0.0,0.0,86,0.00,CLR,SCT,0.00,WeatherDisplay:10.37,2013-05-10 13:10:00,
2013-05-10 09:11:00,61.6,57.4,29.93,NW,305,0.0,0.0,86,0.00,CLR,SCT,0.00,WeatherDisplay:10.37,2013-05-10 13:11:00,
2013-05-10 09:13:00,61.8,57.6,29.93,NW,305,0.0,0.0,86,0.00,CLR,SCT,0.00,WeatherDisplay:10.37,2013-05-10 13:13:00,
2013-05-10 09:14:00,62.0,57.8,29.93,NW,305,0.0,0.0,86,0.00,CLR,SCT,0.00,WeatherDisplay:10.37,2013-05-10 13:14:00,
2013-05-10 09:16:00,62.1,57.9,29.93,NW,305,0.0,0.0,86,0.00,CLR,SCT,0.00,WeatherDisplay:10.37,2013-05-10 13:16:00,
2013-05-10 09:18:00,62.3,58.1,29.93,NW,305,0.0,0.0,86,0.00,CLR,SCT,0.00,WeatherDisplay:10.37,2013-05-10 13:18:00,
2013-05-10 09:20:00,62.4,57.8,29.93,NW,305,0.0,0.0,85,0.00,CLR,SCT,0.00,WeatherDisplay:10.37,2013-05-10 13:20:00,
2013-05-10 09:22:00,62.4,57.8,29.93,NW,305,0.0,0.0,85,0.00,CLR,SCT,0.00,WeatherDisplay:10.37,2013-05-10 13:22:00,
2013-05-10 09:23:00,62.6,58.0,29.93,NW,305,0.0,0.0,85,0.00,CLR,SCT,0.00,WeatherDisplay:10.37,2013-05-10 13:23:00,
2013-05-10 09:24:00,62.6,58.0,29.93,WNW,300,0.0,0.0,85,0.00,CLR,SCT,0.00,WeatherDisplay:10.37,2013-05-10 13:24:00,
2013-05-10 09:26:00,62.7,58.1,29.93,WNW,291,0.0,0.0,85,0.00,CLR,SCT,0.00,WeatherDisplay:10.37,2013-05-10 13:26:00,
2013-05-10 09:29:00,63.1,58.5,29.93,WNW,291,0.0,0.0,85,0.00,CLR,SCT,0.00,WeatherDisplay:10.37,2013-05-10 13:29:00,
2013-05-10 09:30:00,63.1,58.5,29.93,WNW,291,0.0,0.0,85,0.00,CLR,SCT,0.00,WeatherDisplay:10.37,2013-05-10 13:30:00,
2013-05-10 09:32:00,63.4,58.8,29.93,WNW,291,0.0,0.0,85,0.00,CLR,SCT,0.00,WeatherDisplay:10.37,2013-05-10 13:32:00,
2013-05-10 09:33:00,63.4,58.8,29.93,WNW,291,0.0,0.0,85,0.00,CLR,SCT,0.00,WeatherDisplay:10.37,2013-05-10 13:33:00,
2013-05-10 09:35:00,63.7,59.1,29.93,WNW,291,0.0,0.0,85,0.00,CLR,SCT,0.00,WeatherDisplay:10.37,2013-05-10 13:35:00,
2013-05-10 09:36:00,63.9,59.3,29.93,WNW,291,0.0,0.0,85,0.00,CLR,SCT,0.00,WeatherDisplay:10.37,2013-05-10 13:36:00,
2013-05-10 09:38:00,64.2,59.6,29.92,WNW,291,0.0,0.0,85,0.00,CLR,SCT,0.00,WeatherDisplay:10.37,2013-05-10 13:38:00,
2013-05-10 09:41:00,64.5,59.9,29.92,SW,234,0.0,0.0,85,0.00,CLR,SCT,0.00,WeatherDisplay:10.37,2013-05-10 13:41:00,
2013-05-10 09:44:00,65.0,60.4,29.92,SW,234,0.0,0.0,85,0.00,CLR,SCT,0.00,WeatherDisplay:10.37,2013-05-10 13:44:00,
2013-05-10 09:45:00,65.2,60.6,29.92,SW,234,0.0,0.0,85,0.00,CLR,SCT,0.00,WeatherDisplay:10.37,2013-05-10 13:45:00,
2013-05-10 09:46:00,65.3,60.7,29.92,SW,234,0.0,0.0,85,0.00,CLR,SCT,0.00,WeatherDisplay:10.37,2013-05-10 13:46:00,
2013-05-10 09:49:00,65.6,60.6,29.92,SW,234,0.0,0.0,84,0.00,CLR,SCT,0.00,WeatherDisplay:10.37,2013-05-10 13:49:00,
2013-05-10 09:50:00,65.6,60.6,29.92,SW,234,0.0,0.0,84,0.00,CLR,SCT,0.00,WeatherDisplay:10.37,2013-05-10 13:50:00,
2013-05-10 09:53:00,66.0,61.0,29.92,SW,234,0.0,0.0,84,0.00,CLR,SCT,0.00,WeatherDisplay:10.37,2013-05-10 13:53:00,
2013-05-10 09:54:00,66.1,61.1,29.91,SW,234,0.0,0.0,84,0.00,CLR,SCT,0.00,WeatherDisplay:10.37,2013-05-10 13:54:00,
2013-05-10 09:56:00,66.3,61.0,29.92,SSE,148,0.0,0.0,83,0.00,CLR,SCT,0.00,WeatherDisplay:10.37,2013-05-10 13:56:00,
2013-05-10 09:58:00,66.4,61.1,29.92,SSE,148,0.0,0.0,83,0.00,CLR,SCT,0.00,WeatherDisplay:10.37,2013-05-10 13:58:00,
2013-05-10 10:01:00,66.6,61.3,29.91,SSE,148,0.0,0.0,83,0.00,CLR,SCT,0.00,WeatherDisplay:10.37,2013-05-10 14:01:00,
2013-05-10 10:02:00,66.8,61.5,29.92,SSE,148,0.0,0.0,83,0.00,CLR,SCT,0.00,WeatherDisplay:10.37,2013-05-10 14:02:00,
2013-05-10 10:05:00,66.9,61.6,29.91,SSE,148,0.0,0.0,83,0.00,CLR,SCT,0.00,WeatherDisplay:10.37,2013-05-10 14:05:00,
2013-05-10 10:07:00,67.1,61.8,29.91,SSE,148,0.0,0.0,83,0.00,CLR,SCT,0.00,WeatherDisplay:10.37,2013-05-10 14:07:00,
2013-05-10 10:08:00,67.3,62.0,29.91,SSE,148,0.0,0.0,83,0.00,CLR,SCT,0.00,WeatherDisplay:10.37,2013-05-10 14:08:00,
2013-05-10 10:09:00,67.3,62.0,29.91,SSE,148,0.0,0.0,83,0.00,CLR,SCT,0.00,WeatherDisplay:10.37,2013-05-10 14:09:00,
2013-05-10 10:12:00,67.4,61.4,29.91,SSE,148,0.0,0.0,81,0.00,CLR,SCT,0.00,WeatherDisplay:10.37,2013-05-10 14:12:00,
2013-05-10 10:14:00,67.6,61.6,29.91,SSE,148,0.0,0.0,81,0.00,CLR,SCT,0.00,WeatherDisplay:10.37,2013-05-10 14:14:00,
2013-05-10 10:16:00,67.8,62.1,29.91,SSE,148,0.0,0.0,82,0.00,CLR,SCT,0.00,WeatherDisplay:10.37,2013-05-10 14:16:00,
2013-05-10 10:18:00,67.8,61.8,29.91,SSE,148,0.0,0.0,81,0.00,CLR,SCT,0.00,WeatherDisplay:10.37,2013-05-10 14:18:00,
2013-05-10 10:20:00,67.9,62.2,29.91,SSE,148,0.0,0.0,82,0.00,CLR,SCT,0.00,WeatherDisplay:10.37,2013-05-10 14:20:00,
2013-05-10 10:21:00,68.1,62.4,29.91,SSE,148,0.0,0.0,82,0.00,CLR,SCT,0.00,WeatherDisplay:10.37,2013-05-10 14:21:00,
2013-05-10 10:22:00,68.3,62.2,29.91,SSE,148,0.0,0.0,81,0.00,CLR,SCT,0.00,WeatherDisplay:10.37,2013-05-10 14:22:00,
2013-05-10 10:25:00,68.4,62.3,29.91,SSE,148,0.0,0.0,81,0.00,CLR,SCT,0.00,WeatherDisplay:10.37,2013-05-10 14:25:00,
2013-05-10 10:26:00,68.6,62.5,29.91,SSE,148,0.0,0.0,81,0.00,CLR,SCT,0.00,WeatherDisplay:10.37,2013-05-10 14:26:00,
2013-05-10 10:27:00,68.6,62.5,29.91,SSE,148,0.0,0.0,81,0.00,CLR,SCT,0.00,WeatherDisplay:10.37,2013-05-10 14:27:00,
2013-05-10 10:28:00,68.8,62.7,29.91,SSE,148,0.0,0.0,81,0.00,CLR,SCT,0.00,WeatherDisplay:10.37,2013-05-10 14:28:00,
2013-05-10 10:30:00,68.9,62.8,29.91,SSE,148,0.0,0.0,81,0.00,CLR,SCT,0.00,WeatherDisplay:10.37,2013-05-10 14:30:00,
2013-05-10 10:33:00,69.3,63.2,29.91,SSE,148,0.0,0.0,81,0.00,CLR,SCT,0.00,WeatherDisplay:10.37,2013-05-10 14:33:00,
2013-05-10 10:34:00,69.4,63.3,29.91,SSE,148,1.0,1.0,81,0.00,CLR,SCT,0.00,WeatherDisplay:10.37,2013-05-10 14:34:00,
2013-05-10 10:35:00,69.4,63.3,29.91,SSE,148,3.5,3.5,81,0.00,CLR,SCT,0.00,WeatherDisplay:10.37,2013-05-10 14:35:00,
2013-05-10 10:37:00,69.6,63.5,29.91,SSE,148,0.0,0.0,81,0.00,CLR,SCT,0.00,WeatherDisplay:10.37,2013-05-10 14:37:00,
2013-05-10 10:38:00,69.6,63.5,29.91,SSE,148,0.0,0.0,81,0.00,CLR,SCT,0.00,WeatherDisplay:10.37,2013-05-10 14:38:00,
2013-05-10 10:39:00,69.8,63.7,29.91,SSE,148,0.0,0.0,81,0.00,CLR,SCT,0.00,WeatherDisplay:10.37,2013-05-10 14:39:00,
2013-05-10 10:41:00,69.9,63.8,29.91,SSE,148,0.0,0.0,81,0.00,CLR,SCT,0.00,WeatherDisplay:10.37,2013-05-10 14:41:00,
2013-05-10 10:44:00,70.3,64.2,29.91,SSE,148,0.0,0.0,81,0.00,CLR,SCT,0.00,WeatherDisplay:10.37,2013-05-10 14:44:00,
2013-05-10 10:45:00,70.3,64.2,29.91,SSE,148,0.0,0.0,81,0.00,CLR,SCT,0.00,WeatherDisplay:10.37,2013-05-10 14:45:00,
2013-05-10 10:47:00,70.4,63.9,29.91,SSE,148,0.0,0.0,80,0.00,CLR,SCT,0.00,WeatherDisplay:10.37,2013-05-10 14:47:00,
2013-05-10 10:48:00,70.6,64.1,29.91,SSE,148,2.3,2.3,80,0.00,CLR,SCT,0.00,WeatherDisplay:10.37,2013-05-10 14:48:00,
2013-05-10 10:49:00,70.6,64.1,29.90,SSE,148,1.1,0.0,80,0.00,CLR,SCT,0.00,WeatherDisplay:10.37,2013-05-10 14:49:00,
2013-05-10 10:53:00,70.8,64.0,29.90,SSE,148,0.0,0.0,79,0.00,CLR,SCT,0.00,WeatherDisplay:10.37,2013-05-10 14:53:00,
2013-05-10 10:54:00,70.9,64.1,29.90,SSE,148,0.0,0.0,79,0.00,CLR,SCT,0.00,WeatherDisplay:10.37,2013-05-10 14:54:00,
2013-05-10 10:56:00,71.1,64.3,29.90,SSE,148,0.0,0.0,79,0.00,CLR,SCT,0.00,WeatherDisplay:10.37,2013-05-10 14:56:00,
2013-05-10 11:00:00,71.5,64.6,29.90,SSE,148,0.0,0.0,79,0.00,CLR,SCT,0.00,WeatherDisplay:10.37,2013-05-10 15:00:00,
2013-05-10 11:01:00,71.6,64.7,29.90,SSE,148,0.0,0.0,79,0.00,CLR,SCT,0.00,WeatherDisplay:10.37,2013-05-10 15:01:00,
2013-05-10 11:03:00,71.8,64.9,29.90,SSE,148,0.0,0.0,79,0.00,CLR,SCT,0.00,WeatherDisplay:10.37,2013-05-10 15:03:00,
2013-05-10 11:06:00,72.3,65.1,29.90,SSE,148,2.0,2.0,78,0.00,CLR,SCT,0.00,WeatherDisplay:10.37,2013-05-10 15:06:00,
2013-05-10 11:07:00,72.3,65.1,29.90,SSE,148,3.5,3.5,78,0.00,CLR,SCT,0.00,WeatherDisplay:10.37,2013-05-10 15:07:00,
2013-05-10 11:08:00,72.5,65.2,29.90,SSE,148,0.0,0.0,78,0.00,CLR,SCT,0.00,WeatherDisplay:10.37,2013-05-10 15:08:00,
2013-05-10 11:10:00,72.5,64.9,29.90,SSE,148,3.5,3.5,77,0.00,CLR,SCT,0.00,WeatherDisplay:10.37,2013-05-10 15:10:00,
2013-05-10 11:12:00,72.7,65.4,29.90,SSE,148,1.0,0.0,78,0.00,CLR,SCT,0.00,WeatherDisplay:10.37,2013-05-10 15:12:00,
2013-05-10 11:13:00,72.7,65.1,29.90,SSE,148,2.3,2.3,77,0.00,CLR,SCT,0.00,WeatherDisplay:10.37,2013-05-10 15:13:00,
2013-05-10 11:15:00,72.7,65.1,29.90,South,187,3.5,3.5,77,0.00,CLR,SCT,0.00,WeatherDisplay:10.37,2013-05-10 15:15:00,
2013-05-10 11:17:00,72.8,65.2,29.90,South,187,0.0,0.0,77,0.00,CLR,SCT,0.00,WeatherDisplay:10.37,2013-05-10 15:17:00,
2013-05-10 11:18:00,72.8,65.2,29.90,South,187,0.0,0.0,77,0.00,CLR,SCT,0.00,WeatherDisplay:10.37,2013-05-10 15:18:00,
2013-05-10 11:21:00,73.0,65.4,29.90,South,187,1.0,1.0,77,0.00,CLR,SCT,0.00,WeatherDisplay:10.37,2013-05-10 15:21:00,
2013-05-10 11:23:00,73.2,65.6,29.91,South,187,0.0,0.0,77,0.00,CLR,SCT,0.00,WeatherDisplay:10.37,2013-05-10 15:23:00,
2013-05-10 11:25:00,73.5,65.8,29.91,South,187,0.0,0.0,77,0.00,CLR,SCT,0.00,WeatherDisplay:10.37,2013-05-10 15:25:00,
2013-05-10 11:26:00,73.5,65.8,29.91,South,185,5.0,5.0,77,0.00,CLR,SCT,0.00,WeatherDisplay:10.37,2013-05-10 15:26:00,
2013-05-10 11:27:00,73.5,65.5,29.91,WSW,255,6.0,6.0,76,0.00,CLR,SCT,0.00,WeatherDisplay:10.37,2013-05-10 15:27:00,
2013-05-10 11:30:00,73.7,64.9,29.91,WSW,250,4.6,4.6,74,0.00,CLR,SCT,0.00,WeatherDisplay:10.37,2013-05-10 15:30:00,
2013-05-10 11:32:00,73.7,64.9,29.91,West,265,6.9,6.9,74,0.00,CLR,SCT,0.00,WeatherDisplay:10.37,2013-05-10 15:32:00,
2013-05-10 11:33:00,73.7,64.1,29.91,West,265,6.9,6.9,72,0.00,CLR,SCT,0.00,WeatherDisplay:10.37,2013-05-10 15:33:00,
2013-05-10 11:35:00,73.9,64.3,29.91,West,260,6.9,6.9,72,0.00,CLR,SCT,0.00,WeatherDisplay:10.37,2013-05-10 15:35:00,
2013-05-10 11:37:00,73.9,64.3,29.92,WSW,254,11.0,11.0,72,0.00,CLR,SCT,0.00,WeatherDisplay:10.37,2013-05-10 15:37:00,
2013-05-10 11:38:00,74.0,63.6,29.92,West,265,11.5,11.5,70,0.00,CLR,SCT,0.00,WeatherDisplay:10.37,2013-05-10 15:38:00,
2013-05-10 11:40:00,74.0,63.2,29.91,West,264,10.4,10.4,69,0.00,CLR,SCT,0.00,WeatherDisplay:10.37,2013-05-10 15:40:00,
2013-05-10 11:41:00,74.0,63.2,29.92,West,264,10.4,10.4,69,0.00,CLR,SCT,0.00,WeatherDisplay:10.37,2013-05-10 15:41:00,
2013-05-10 11:43:00,74.2,63.8,29.91,WSW,254,12.0,12.0,70,0.00,CLR,SCT,0.00,WeatherDisplay:10.37,2013-05-10 15:43:00,
2013-05-10 11:44:00,74.2,63.0,29.91,WNW,298,12.7,12.7,68,0.00,CLR,SCT,0.00,WeatherDisplay:10.37,2013-05-10 15:44:00,
2013-05-10 11:49:00,74.4,63.1,29.91,West,277,7.0,7.0,68,0.00,CLR,SCT,0.00,WeatherDisplay:10.37,2013-05-10 15:49:00,
2013-05-10 11:50:00,74.6,62.9,29.91,West,273,13.8,13.8,67,0.00,CLR,SCT,0.00,WeatherDisplay:10.37,2013-05-10 15:50:00,
2013-05-10 11:53:00,74.6,62.5,29.91,West,270,15.0,15.0,66,0.00,CLR,SCT,0.00,WeatherDisplay:10.37,2013-05-10 15:53:00,
2013-05-10 11:56:00,74.6,62.5,29.90,West,267,4.6,4.6,66,0.00,CLR,SCT,0.00,WeatherDisplay:10.37,2013-05-10 15:56:00,
2013-05-10 11:57:00,74.6,62.1,29.90,West,277,6.0,6.0,65,0.00,CLR,SCT,0.00,WeatherDisplay:10.37,2013-05-10 15:57:00,
2013-05-10 11:58:00,74.6,62.5,29.90,West,271,10.4,10.4,66,0.00,CLR,SCT,0.00,WeatherDisplay:10.37,2013-05-10 15:58:00,
2013-05-10 12:01:00,74.6,62.5,29.90,WSW,254,11.5,11.5,66,0.00,CLR,SCT,0.00,WeatherDisplay:10.37,2013-05-10 16:01:00,
2013-05-10 12:04:00,74.7,62.1,29.90,West,269,11.5,11.5,65,0.00,CLR,SCT,0.00,WeatherDisplay:10.37,2013-05-10 16:04:00,
2013-05-10 12:06:00,74.7,62.1,29.90,WSW,251,6.9,6.9,65,0.00,CLR,SCT,0.00,WeatherDisplay:10.37,2013-05-10 16:06:00,
2013-05-10 12:09:00,74.9,62.3,29.90,West,265,11.5,11.5,65,0.00,CLR,SCT,0.00,WeatherDisplay:10.37,2013-05-10 16:09:00,
2013-05-10 12:10:00,74.9,62.3,29.90,West,277,9.2,9.2,65,0.00,CLR,SCT,0.00,WeatherDisplay:10.37,2013-05-10 16:10:00,
2013-05-10 12:13:00,75.1,62.5,29.90,WSW,254,11.5,11.5,65,0.00,CLR,SCT,0.00,WeatherDisplay:10.37,2013-05-10 16:13:00,
2013-05-10 12:15:00,75.1,62.5,29.90,West,265,9.2,9.2,65,0.00,CLR,SCT,0.00,WeatherDisplay:10.37,2013-05-10 16:15:00,
2013-05-10 12:16:00,75.1,63.0,29.90,West,273,9.2,9.2,66,0.00,CLR,SCT,0.00,WeatherDisplay:10.37,2013-05-10 16:16:00,
2013-05-10 12:18:00,75.3,62.7,29.90,West,264,10.4,10.4,65,0.00,CLR,SCT,0.00,WeatherDisplay:10.37,2013-05-10 16:18:00,
2013-05-10 12:20:00,75.3,62.7,29.90,WSW,257,6.9,6.9,65,0.00,CLR,SCT,0.00,WeatherDisplay:10.37,2013-05-10 16:20:00,
2013-05-10 12:21:00,75.3,62.7,29.90,West,271,8.1,8.1,65,0.00,CLR,SCT,0.00,WeatherDisplay:10.37,2013-05-10 16:21:00,
2013-05-10 12:23:00,75.3,63.2,29.90,WNW,286,3.5,3.5,66,0.00,CLR,SCT,0.00,WeatherDisplay:10.37,2013-05-10 16:23:00,
2013-05-10 12:24:00,75.4,62.8,29.90,NNW,330,4.6,4.6,65,0.00,CLR,SCT,0.00,WeatherDisplay:10.37,2013-05-10 16:24:00,
2013-05-10 12:29:00,75.3,61.8,29.90,West,265,13.8,13.8,63,0.00,CLR,SCT,0.00,WeatherDisplay:10.37,2013-05-10 16:29:00,
2013-05-10 12:30:00,75.3,62.3,29.90,West,265,6.9,6.9,64,0.00,CLR,SCT,0.00,WeatherDisplay:10.37,2013-05-10 16:30:00,
2013-05-10 12:31:00,75.3,62.7,29.90,West,265,6.9,0.0,65,0.00,CLR,SCT,0.00,WeatherDisplay:10.37,2013-05-10 16:31:00,
2013-05-10 12:32:00,75.3,62.7,29.90,West,264,1.1,1.1,65,0.00,CLR,SCT,0.00,WeatherDisplay:10.37,2013-05-10 16:32:00,
2013-05-10 12:33:00,75.3,62.7,29.90,West,264,3.5,3.5,65,0.00,CLR,SCT,0.00,WeatherDisplay:10.37,2013-05-10 16:33:00,
2013-05-10 12:37:00,75.1,62.5,29.90,WNW,286,6.9,6.9,65,0.00,CLR,SCT,0.00,WeatherDisplay:10.37,2013-05-10 16:37:00,
2013-05-10 12:38:00,75.1,62.5,29.90,WNW,286,10.4,10.4,65,0.00,CLR,SCT,0.00,WeatherDisplay:10.37,2013-05-10 16:38:00,
2013-05-10 12:42:00,75.3,62.7,29.90,WSW,258,2.3,2.3,65,0.00,CLR,SCT,0.00,WeatherDisplay:10.37,2013-05-10 16:42:00,
2013-05-10 12:43:00,75.3,62.7,29.90,WSW,244,4.6,4.6,65,0.00,CLR,SCT,0.00,WeatherDisplay:10.37,2013-05-10 16:43:00,
2013-05-10 12:44:00,75.3,62.3,29.90,West,265,10.4,10.4,64,0.00,CLR,SCT,0.00,WeatherDisplay:10.37,2013-05-10 16:44:00,
2013-05-10 12:45:00,75.3,62.3,29.90,West,262,9.2,9.2,64,0.00,CLR,SCT,0.00,WeatherDisplay:10.37,2013-05-10 16:45:00,
2013-05-10 12:47:00,75.4,62.8,29.90,West,268,1.1,1.1,65,0.00,CLR,SCT,0.00,WeatherDisplay:10.37,2013-05-10 16:47:00,
2013-05-10 12:49:00,75.6,62.6,29.90,WSW,254,11.0,11.0,64,0.00,CLR,SCT,0.00,WeatherDisplay:10.37,2013-05-10 16:49:00,
2013-05-10 12:50:00,75.6,63.0,29.90,WSW,252,11.5,11.5,65,0.00,CLR,SCT,0.00,WeatherDisplay:10.37,2013-05-10 16:50:00,
2013-05-10 12:52:00,75.8,62.8,29.90,West,263,11.5,11.5,64,0.00,CLR,SCT,0.00,WeatherDisplay:10.37,2013-05-10 16:52:00,
2013-05-10 12:54:00,75.8,61.8,29.90,West,262,13.8,13.8,62,0.00,CLR,SCT,0.00,WeatherDisplay:10.37,2013-05-10 16:54:00,
2013-05-10 12:55:00,75.8,61.8,29.90,West,259,13.8,13.8,62,0.00,CLR,SCT,0.00,WeatherDisplay:10.37,2013-05-10 16:55:00,
2013-05-10 12:57:00,75.8,61.8,29.90,West,261,9.2,9.2,62,0.00,CLR,SCT,0.00,WeatherDisplay:10.37,2013-05-10 16:57:00,
2013-05-10 13:00:00,75.8,62.3,29.90,WSW,238,4.6,4.6,63,0.00,CLR,SCT,0.00,WeatherDisplay:10.37,2013-05-10 17:00:00,
2013-05-10 13:01:00,75.8,62.3,29.90,WSW,238,4.6,4.6,63,0.00,CLR,SCT,0.00,WeatherDisplay:10.37,2013-05-10 17:01:00,
2013-05-10 13:04:00,75.6,61.7,29.90,WSW,247,5.8,5.8,62,0.00,CLR,SCT,0.00,WeatherDisplay:10.37,2013-05-10 17:04:00,
2013-05-10 13:06:00,75.6,61.7,29.90,WSW,253,9.0,9.0,62,0.00,CLR,SCT,0.00,WeatherDisplay:10.37,2013-05-10 17:06:00,
2013-05-10 13:07:00,75.6,61.7,29.90,SW,235,9.2,9.2,62,0.00,CLR,SCT,0.00,WeatherDisplay:10.37,2013-05-10 17:07:00,
2013-05-10 13:08:00,75.6,61.7,29.90,West,261,10.4,10.4,62,0.00,CLR,SCT,0.00,WeatherDisplay:10.37,2013-05-10 17:08:00,
2013-05-10 13:11:00,75.6,61.7,29.90,West,266,9.2,9.2,62,0.00,CLR,SCT,0.00,WeatherDisplay:10.37,2013-05-10 17:11:00,
2013-05-10 13:12:00,75.6,62.1,29.90,WSW,242,9.2,9.2,63,0.00,CLR,SCT,0.00,WeatherDisplay:10.37,2013-05-10 17:12:00,
2013-05-10 13:14:00,75.6,61.7,29.89,WSW,242,10.4,10.4,62,0.00,CLR,SCT,0.00,WeatherDisplay:10.37,2013-05-10 17:14:00,
2013-05-10 13:16:00,75.4,61.5,29.89,SW,219,3.5,3.5,62,0.00,CLR,SCT,0.00,WeatherDisplay:10.37,2013-05-10 17:16:00,
2013-05-10 13:17:00,75.4,61.9,29.89,WSW,248,6.0,6.0,63,0.00,CLR,SCT,0.00,WeatherDisplay:10.37,2013-05-10 17:17:00,
2013-05-10 13:18:00,75.4,61.5,29.89,West,259,6.9,6.9,62,0.00,CLR,SCT,0.00,WeatherDisplay:10.37,2013-05-10 17:18:00,
2013-05-10 13:21:00,75.4,61.5,29.89,WSW,254,6.9,6.9,62,0.00,CLR,SCT,0.00,WeatherDisplay:10.37,2013-05-10 17:21:00,
2013-05-10 13:23:00,75.4,61.5,29.89,WSW,252,3.5,3.5,62,0.00,CLR,SCT,0.00,WeatherDisplay:10.37,2013-05-10 17:23:00,
2013-05-10 13:24:00,75.4,61.9,29.89,WSW,252,3.5,0.0,63,0.00,CLR,SCT,0.00,WeatherDisplay:10.37,2013-05-10 17:24:00,
2013-05-10 13:28:00,75.4,61.9,29.89,West,261,4.6,4.6,63,0.00,CLR,SCT,0.00,WeatherDisplay:10.37,2013-05-10 17:28:00,
2013-05-10 13:29:00,75.4,61.9,29.89,West,261,4.6,4.6,63,0.00,CLR,SCT,0.00,WeatherDisplay:10.37,2013-05-10 17:29:00,
2013-05-10 13:30:00,75.4,61.5,29.89,SW,227,3.5,3.5,62,0.00,CLR,SCT,0.00,WeatherDisplay:10.37,2013-05-10 17:30:00,
2013-05-10 13:31:00,75.4,61.9,29.89,SW,229,5.8,5.8,63,0.00,CLR,SCT,0.00,WeatherDisplay:10.37,2013-05-10 17:31:00,
2013-05-10 13:34:00,75.6,62.1,29.89,SW,230,2.3,2.3,63,0.00,CLR,SCT,0.00,WeatherDisplay:10.37,2013-05-10 17:34:00,
2013-05-10 13:35:00,75.6,62.6,29.89,SW,230,0.0,0.0,64,0.00,CLR,SCT,0.00,WeatherDisplay:10.37,2013-05-10 17:35:00,
2013-05-10 13:36:00,75.6,62.1,29.89,WSW,239,3.0,3.0,63,0.00,CLR,SCT,0.00,WeatherDisplay:10.37,2013-05-10 17:36:00,
2013-05-10 13:37:00,75.6,62.1,29.88,WSW,239,3.5,3.5,63,0.00,CLR,SCT,0.00,WeatherDisplay:10.37,2013-05-10 17:37:00,
2013-05-10 13:40:00,75.8,62.8,29.88,WSW,239,2.0,2.0,64,0.00,CLR,SCT,0.00,WeatherDisplay:10.37,2013-05-10 17:40:00,
2013-05-10 13:42:00,75.8,62.3,29.88,WSW,248,4.6,4.6,63,0.00,CLR,SCT,0.00,WeatherDisplay:10.37,2013-05-10 17:42:00,
2013-05-10 13:44:00,75.8,61.8,29.88,WSW,242,6.9,6.9,62,0.00,CLR,SCT,0.00,WeatherDisplay:10.37,2013-05-10 17:44:00,
2013-05-10 13:47:00,75.8,61.8,29.88,West,273,4.6,4.6,62,0.00,CLR,SCT,0.00,WeatherDisplay:10.37,2013-05-10 17:47:00,
2013-05-10 13:48:00,75.8,61.8,29.88,West,273,2.0,2.0,62,0.00,CLR,SCT,0.00,WeatherDisplay:10.37,2013-05-10 17:48:00,
2013-05-10 13:49:00,75.8,61.8,29.88,West,273,3.5,3.5,62,0.00,CLR,SCT,0.00,WeatherDisplay:10.37,2013-05-10 17:49:00,
2013-05-10 13:50:00,75.8,61.8,29.88,West,273,0.0,0.0,62,0.00,CLR,SCT,0.00,WeatherDisplay:10.37,2013-05-10 17:50:00,
2013-05-10 13:54:00,75.8,61.8,29.88,West,271,0.0,0.0,62,0.00,CLR,SCT,0.00,WeatherDisplay:10.37,2013-05-10 17:54:00,
2013-05-10 13:55:00,75.8,61.8,29.88,West,271,0.0,0.0,62,0.00,CLR,SCT,0.00,WeatherDisplay:10.37,2013-05-10 17:55:00,
2013-05-10 13:57:00,75.8,62.3,29.88,West,271,1.1,1.1,63,0.00,CLR,SCT,0.00,WeatherDisplay:10.37,2013-05-10 17:57:00,
2013-05-10 13:58:00,75.8,61.8,29.88,West,268,4.0,4.0,62,0.00,CLR,SCT,0.00,WeatherDisplay:10.37,2013-05-10 17:58:00,
2013-05-10 14:00:00,76.0,62.0,29.88,West,267,0.0,0.0,62,0.00,CLR,SCT,0.00,WeatherDisplay:10.37,2013-05-10 18:00:00,
2013-05-10 14:03:00,76.1,62.6,29.87,NW,316,5.8,5.8,63,0.00,CLR,SCT,0.00,WeatherDisplay:10.37,2013-05-10 18:03:00,
2013-05-10 14:04:00,76.3,62.3,29.87,NW,316,5.8,5.8,62,0.00,CLR,SCT,0.00,WeatherDisplay:10.37,2013-05-10 18:04:00,
2013-05-10 14:05:00,76.3,62.3,29.87,NW,316,5.8,5.8,62,0.00,CLR,SCT,0.00,WeatherDisplay:10.37,2013-05-10 18:05:00,
2013-05-10 14:09:00,76.5,63.0,29.87,NW,316,0.0,0.0,63,0.00,CLR,SCT,0.00,WeatherDisplay:10.37,2013-05-10 18:09:00,
2013-05-10 14:10:00,76.5,63.0,29.88,NW,316,3.0,3.0,63,0.00,CLR,SCT,0.00,WeatherDisplay:10.37,2013-05-10 18:10:00,
2013-05-10 14:12:00,76.5,62.5,29.87,WSW,253,9.2,9.2,62,0.00,CLR,SCT,0.00,WeatherDisplay:10.37,2013-05-10 18:12:00,
2013-05-10 14:13:00,76.7,62.7,29.87,WSW,257,5.8,5.8,62,0.00,CLR,SCT,0.00,WeatherDisplay:10.37,2013-05-10 18:13:00,
2013-05-10 14:14:00,76.7,62.2,29.87,WSW,256,5.8,5.8,61,0.00,CLR,SCT,0.00,WeatherDisplay:10.37,2013-05-10 18:14:00,
2013-05-10 14:17:00,76.7,62.7,29.87,WSW,257,5.8,5.8,62,0.00,CLR,SCT,0.00,WeatherDisplay:10.37,2013-05-10 18:17:00,
2013-05-10 14:19:00,76.7,62.7,29.87,West,261,5.0,5.0,62,0.00,CLR,SCT,0.00,WeatherDisplay:10.37,2013-05-10 18:19:00,
2013-05-10 14:21:00,76.7,62.7,29.87,WSW,257,11.5,11.5,62,0.00,CLR,SCT,0.00,WeatherDisplay:10.37,2013-05-10 18:21:00,
2013-05-10 14:22:00,76.7,62.7,29.87,WSW,254,11.5,11.5,62,0.00,CLR,SCT,0.00,WeatherDisplay:10.37,2013-05-10 18:22:00,
2013-05-10 14:23:00,76.7,62.2,29.87,West,261,9.2,9.2,61,0.00,CLR,SCT,0.00,WeatherDisplay:10.37,2013-05-10 18:23:00,
2013-05-10 14:24:00,76.7,62.7,29.87,West,271,6.9,6.9,62,0.00,CLR,SCT,0.00,WeatherDisplay:10.37,2013-05-10 18:24:00,
2013-05-10 14:29:00,76.7,62.7,29.87,WSW,258,3.5,3.5,62,0.00,CLR,SCT,0.00,WeatherDisplay:10.37,2013-05-10 18:29:00,
2013-05-10 14:30:00,76.7,62.7,29.87,West,259,4.6,4.6,62,0.00,CLR,SCT,0.00,WeatherDisplay:10.37,2013-05-10 18:30:00,
2013-05-10 14:32:00,76.5,62.5,29.87,WSW,252,9.2,9.2,62,0.00,CLR,SCT,0.00,WeatherDisplay:10.37,2013-05-10 18:32:00,
2013-05-10 14:34:00,76.5,62.5,29.87,WNW,292,12.7,12.7,62,0.00,CLR,SCT,0.00,WeatherDisplay:10.37,2013-05-10 18:34:00,
2013-05-10 14:37:00,76.1,61.7,29.87,WSW,257,11.5,11.5,61,0.00,CLR,SCT,0.00,WeatherDisplay:10.37,2013-05-10 18:37:00,
2013-05-10 14:38:00,76.0,61.6,29.87,West,262,10.4,10.4,61,0.00,CLR,SCT,0.00,WeatherDisplay:10.37,2013-05-10 18:38:00,
2013-05-10 14:39:00,76.0,61.6,29.87,West,278,11.5,11.5,61,0.00,CLR,SCT,0.00,WeatherDisplay:10.37,2013-05-10 18:39:00,
2013-05-10 14:42:00,75.6,61.2,29.87,West,271,15.0,15.0,61,0.00,CLR,SCT,0.00,WeatherDisplay:10.37,2013-05-10 18:42:00,
2013-05-10 14:43:00,75.4,61.0,29.87,West,263,11.0,11.0,61,0.00,CLR,SCT,0.00,WeatherDisplay:10.37,2013-05-10 18:43:00,
2013-05-10 14:45:00,75.3,60.9,29.87,WSW,251,14.0,14.0,61,0.00,CLR,SCT,0.00,WeatherDisplay:10.37,2013-05-10 18:45:00,
2013-05-10 14:46:00,75.3,61.4,29.87,West,266,13.8,13.8,62,0.00,CLR,SCT,0.00,WeatherDisplay:10.37,2013-05-10 18:46:00,
2013-05-10 14:47:00,75.1,61.2,29.87,West,267,10.4,10.4,62,0.00,CLR,SCT,0.00,WeatherDisplay:10.37,2013-05-10 18:47:00,
2013-05-10 14:50:00,74.9,61.0,29.87,West,267,11.5,11.5,62,0.00,CLR,SCT,0.00,WeatherDisplay:10.37,2013-05-10 18:50:00,
2013-05-10 14:51:00,74.9,61.0,29.87,West,267,11.5,11.5,62,0.00,CLR,SCT,0.00,WeatherDisplay:10.37,2013-05-10 18:51:00,
2013-05-10 14:52:00,74.9,61.5,29.87,WSW,256,4.6,4.6,63,0.00,CLR,SCT,0.00,WeatherDisplay:10.37,2013-05-10 18:52:00,
2013-05-10 14:54:00,74.7,61.3,29.87,West,267,5.8,5.8,63,0.00,CLR,SCT,0.00,WeatherDisplay:10.37,2013-05-10 18:54:00,
2013-05-10 14:55:00,74.7,61.7,29.87,West,260,11.0,11.0,64,0.00,CLR,SCT,0.00,WeatherDisplay:10.37,2013-05-10 18:55:00,
2013-05-10 14:58:00,74.4,61.4,29.88,West,269,12.7,12.7,64,0.00,CLR,SCT,0.00,WeatherDisplay:10.37,2013-05-10 18:58:00,
2013-05-10 15:00:00,74.2,61.7,29.88,West,274,14.0,14.0,65,0.00,CLR,SCT,0.00,WeatherDisplay:10.37,2013-05-10 19:00:00,
2013-05-10 15:01:00,74.2,61.7,29.88,West,263,15.0,15.0,65,0.00,CLR,SCT,0.00,WeatherDisplay:10.37,2013-05-10 19:01:00,
2013-05-10 15:02:00,74.0,61.5,29.88,West,275,15.0,15.0,65,0.00,CLR,SCT,0.00,WeatherDisplay:10.37,2013-05-10 19:02:00,
2013-05-10 15:05:00,73.7,61.2,29.88,West,270,11.5,11.5,65,0.00,CLR,SCT,0.00,WeatherDisplay:10.37,2013-05-10 19:05:00,
2013-05-10 15:06:00,73.5,61.0,29.88,West,263,13.0,13.0,65,0.00,CLR,SCT,0.00,WeatherDisplay:10.37,2013-05-10 19:06:00,
2013-05-10 15:08:00,73.2,61.2,29.88,WSW,242,11.5,11.5,66,0.00,CLR,SCT,0.00,WeatherDisplay:10.37,2013-05-10 19:08:00,
2013-05-10 15:09:00,73.2,61.2,29.89,West,273,5.8,5.8,66,0.00,CLR,SCT,0.00,WeatherDisplay:10.37,2013-05-10 19:09:00,
2013-05-10 15:14:00,72.5,60.9,29.90,WSW,256,11.5,11.5,67,0.00,CLR,SCT,0.00,WeatherDisplay:10.37,2013-05-10 19:14:00,
2013-05-10 15:15:00,72.3,61.1,29.90,WSW,250,10.4,10.4,68,0.00,CLR,SCT,0.00,WeatherDisplay:10.37,2013-05-10 19:15:00,
2013-05-10 15:18:00,71.8,61.1,29.91,SW,230,4.6,4.6,69,0.01,RA,SCT,0.01,WeatherDisplay:10.37,2013-05-10 19:18:00,
2013-05-10 15:20:00,71.3,60.6,29.91,SW,232,6.9,6.9,69,0.02,RA,SCT,0.02,WeatherDisplay:10.37,2013-05-10 19:20:00,
2013-05-10 15:21:00,71.3,61.0,29.92,SW,225,6.9,6.9,70,0.02,RA,SCT,0.03,WeatherDisplay:10.37,2013-05-10 19:21:00,
2013-05-10 15:23:00,70.8,60.5,29.92,SSW,196,5.8,5.8,70,0.04,RA,SCT,0.05,WeatherDisplay:10.37,2013-05-10 19:23:00,
2013-05-10 15:24:00,70.6,60.3,29.91,SSW,197,1.1,0.0,70,0.05,RA,SCT,0.06,WeatherDisplay:10.37,2013-05-10 19:24:00,
2013-05-10 15:27:00,70.1,60.3,29.91,SSE,167,0.0,0.0,71,0.07,RA,SCT,0.07,WeatherDisplay:10.37,2013-05-10 19:27:00,
2013-05-10 15:29:00,69.8,60.0,29.91,SSW,207,0.0,0.0,71,0.08,RA,SCT,0.08,WeatherDisplay:10.37,2013-05-10 19:29:00,
2013-05-10 15:30:00,69.8,60.0,29.90,SSW,207,0.0,0.0,71,0.08,RA,SCT,0.08,WeatherDisplay:10.37,2013-05-10 19:30:00,
2013-05-10 15:31:00,69.6,59.8,29.90,SSW,207,0.0,0.0,71,0.08,RA,SCT,0.08,WeatherDisplay:10.37,2013-05-10 19:31:00,
2013-05-10 15:32:00,69.4,59.6,29.90,SSW,207,0.0,0.0,71,0.08,RA,SCT,0.08,WeatherDisplay:10.37,2013-05-10 19:32:00,
2013-05-10 15:34:00,69.1,59.7,29.90,SSW,207,0.0,0.0,72,0.09,RA,SCT,0.09,WeatherDisplay:10.37,2013-05-10 19:34:00,
2013-05-10 15:35:00,69.1,59.7,29.90,SSW,207,0.0,0.0,72,0.09,RA,SCT,0.09,WeatherDisplay:10.37,2013-05-10 19:35:00,
2013-05-10 15:40:00,68.6,60.0,29.90,SW,222,4.6,4.6,74,0.09,RA,SCT,0.09,WeatherDisplay:10.37,2013-05-10 19:40:00,
2013-05-10 15:43:00,68.4,60.2,29.89,SSW,208,0.0,0.0,75,0.09,RA,SCT,0.09,WeatherDisplay:10.37,2013-05-10 19:43:00,
2013-05-10 15:44:00,68.4,60.2,29.89,South,182,0.0,0.0,75,0.09,CLR,SCT,0.09,WeatherDisplay:10.37,2013-05-10 19:44:00,
2013-05-10 15:45:00,68.4,60.2,29.89,South,182,0.0,0.0,75,0.09,CLR,SCT,0.09,WeatherDisplay:10.37,2013-05-10 19:45:00,
2013-05-10 15:48:00,68.4,60.2,29.88,South,182,0.0,0.0,75,0.09,CLR,SCT,0.09,WeatherDisplay:10.37,2013-05-10 19:48:00,
2013-05-10 15:49:00,68.4,60.2,29.88,South,182,0.0,0.0,75,0.09,CLR,SCT,0.09,WeatherDisplay:10.37,2013-05-10 19:49:00,
2013-05-10 15:50:00,68.4,60.2,29.88,South,174,5.0,5.0,75,0.09,CLR,SCT,0.09,WeatherDisplay:10.37,2013-05-10 19:50:00,
2013-05-10 15:52:00,68.4,60.2,29.87,SSE,165,4.6,0.0,75,0.09,CLR,SCT,0.09,WeatherDisplay:10.37,2013-05-10 19:52:00,
2013-05-10 15:55:00,68.4,60.2,29.87,SSE,165,0.0,0.0,75,0.09,CLR,SCT,0.09,WeatherDisplay:10.37,2013-05-10 19:55:00,
2013-05-10 15:56:00,68.4,60.2,29.87,SSE,165,0.0,0.0,75,0.09,CLR,SCT,0.09,WeatherDisplay:10.37,2013-05-10 19:56:00,
2013-05-10 15:58:00,68.4,60.2,29.87,SSE,165,0.0,0.0,75,0.09,CLR,SCT,0.09,WeatherDisplay:10.37,2013-05-10 19:58:00,
2013-05-10 15:59:00,68.4,60.2,29.87,SSE,165,0.0,0.0,75,0.09,CLR,SCT,0.09,WeatherDisplay:10.37,2013-05-10 19:59:00,
2013-05-10 16:00:00,68.6,60.7,29.87,SSE,165,0.0,0.0,76,0.09,CLR,SCT,0.09,WeatherDisplay:10.37,2013-05-10 20:00:00,
2013-05-10 16:01:00,68.6,60.7,29.87,SSE,165,0.0,0.0,76,0.09,CLR,SCT,0.09,WeatherDisplay:10.37,2013-05-10 20:01:00,
2013-05-10 16:02:00,68.6,60.4,29.87,SSE,165,0.0,0.0,75,0.09,CLR,SCT,0.09,WeatherDisplay:10.37,2013-05-10 20:02:00,
2013-05-10 16:04:00,68.6,60.4,29.87,SSE,165,0.0,0.0,75,0.09,CLR,SCT,0.09,WeatherDisplay:10.37,2013-05-10 20:04:00,
2013-05-10 16:06:00,68.6,60.7,29.88,SSE,165,4.6,4.6,76,0.09,CLR,SCT,0.09,WeatherDisplay:10.37,2013-05-10 20:06:00,
2013-05-10 16:07:00,68.6,60.7,29.88,SSE,165,3.5,3.5,76,0.09,CLR,SCT,0.09,WeatherDisplay:10.37,2013-05-10 20:07:00,
2013-05-10 16:08:00,68.6,60.7,29.88,SSE,165,3.5,3.5,76,0.09,CLR,SCT,0.09,WeatherDisplay:10.37,2013-05-10 20:08:00,
2013-05-10 16:09:00,68.6,60.7,29.88,SSE,165,3.5,3.5,76,0.09,CLR,SCT,0.09,WeatherDisplay:10.37,2013-05-10 20:09:00,
2013-05-10 16:10:00,68.6,60.7,29.88,SW,214,4.6,4.6,76,0.09,CLR,SCT,0.09,WeatherDisplay:10.37,2013-05-10 20:10:00,
2013-05-10 16:12:00,68.6,60.7,29.88,SW,214,3.5,3.5,76,0.09,CLR,SCT,0.09,WeatherDisplay:10.37,2013-05-10 20:12:00,
2013-05-10 16:15:00,68.8,60.9,29.88,SW,215,0.0,0.0,76,0.09,CLR,SCT,0.09,WeatherDisplay:10.37,2013-05-10 20:15:00,
2013-05-10 16:17:00,68.8,60.9,29.88,SW,215,0.0,0.0,76,0.09,CLR,SCT,0.09,WeatherDisplay:10.37,2013-05-10 20:17:00,
2013-05-10 16:18:00,68.8,61.3,29.88,SW,215,0.0,0.0,77,0.08,CLR,SCT,0.09,WeatherDisplay:10.37,2013-05-10 20:18:00,
2013-05-10 16:22:00,68.9,61.4,29.88,WSW,257,4.6,4.6,77,0.05,CLR,SCT,0.09,WeatherDisplay:10.37,2013-05-10 20:22:00,
2013-05-10 16:26:00,68.9,61.4,29.88,WSW,257,2.3,2.3,77,0.03,CLR,SCT,0.09,WeatherDisplay:10.37,2013-05-10 20:26:00,
2013-05-10 16:27:00,68.9,61.4,29.88,WSW,257,3.0,3.0,77,0.02,CLR,SCT,0.09,WeatherDisplay:10.37,2013-05-10 20:27:00,
2013-05-10 16:30:00,69.1,61.6,29.87,WSW,258,4.0,4.0,77,0.01,CLR,SCT,0.09,WeatherDisplay:10.37,2013-05-10 20:30:00,
2013-05-10 16:32:00,68.9,61.4,29.87,WSW,258,3.5,3.5,77,0.01,CLR,SCT,0.09,WeatherDisplay:10.37,2013-05-10 20:32:00,
2013-05-10 16:33:00,68.9,61.4,29.87,WSW,258,3.5,3.5,77,0.01,CLR,SCT,0.09,WeatherDisplay:10.37,2013-05-10 20:33:00,
2013-05-10 16:36:00,68.9,61.4,29.88,WSW,258,0.0,0.0,77,0.00,CLR,SCT,0.09,WeatherDisplay:10.37,2013-05-10 20:36:00,
2013-05-10 16:37:00,68.9,61.4,29.88,WSW,258,3.0,3.0,77,0.00,CLR,SCT,0.09,WeatherDisplay:10.37,2013-05-10 20:37:00,
2013-05-10 16:38:00,68.9,61.4,29.88,WSW,258,3.5,3.5,77,0.00,CLR,SCT,0.09,WeatherDisplay:10.37,2013-05-10 20:38:00,
2013-05-10 16:41:00,68.9,61.4,29.88,WSW,258,0.0,0.0,77,0.00,CLR,SCT,0.09,WeatherDisplay:10.37,2013-05-10 20:41:00,
2013-05-10 16:43:00,68.9,61.4,29.88,WSW,258,0.0,0.0,77,0.00,CLR,SCT,0.09,WeatherDisplay:10.37,2013-05-10 20:43:00,
2013-05-10 16:44:00,68.9,61.4,29.88,WSW,258,0.0,0.0,77,0.00,CLR,SCT,0.09,WeatherDisplay:10.37,2013-05-10 20:44:00,
2013-05-10 16:47:00,69.1,61.6,29.88,WSW,258,0.0,0.0,77,0.00,CLR,SCT,0.09,WeatherDisplay:10.37,2013-05-10 20:47:00,
2013-05-10 16:49:00,69.1,61.6,29.88,WSW,258,0.0,0.0,77,0.00,CLR,SCT,0.09,WeatherDisplay:10.37,2013-05-10 20:49:00,
2013-05-10 16:52:00,69.1,61.6,29.88,WSW,258,0.0,0.0,77,0.00,CLR,SCT,0.09,WeatherDisplay:10.37,2013-05-10 20:52:00,
2013-05-10 16:53:00,68.9,61.4,29.88,WSW,258,0.0,0.0,77,0.00,CLR,SCT,0.09,WeatherDisplay:10.37,2013-05-10 20:53:00,
2013-05-10 16:57:00,68.9,61.4,29.88,WSW,258,0.0,0.0,77,0.00,CLR,SCT,0.09,WeatherDisplay:10.37,2013-05-10 20:57:00,
2013-05-10 16:58:00,68.9,61.4,29.88,WSW,258,0.0,0.0,77,0.00,CLR,SCT,0.09,WeatherDisplay:10.37,2013-05-10 20:58:00,
2013-05-10 17:00:00,68.9,61.4,29.88,WSW,258,7.0,7.0,77,0.00,CLR,SCT,0.09,WeatherDisplay:10.37,2013-05-10 21:00:00,
2013-05-10 17:02:00,68.8,61.7,29.90,WSW,239,14.0,14.0,78,0.03,RA,SCT,0.12,WeatherDisplay:10.37,2013-05-10 21:02:00,
2013-05-10 17:03:00,68.8,62.0,29.89,West,262,13.8,13.8,79,0.05,RA,SCT,0.16,WeatherDisplay:10.37,2013-05-10 21:03:00,
2013-05-10 17:06:00,68.1,60.6,29.89,WSW,242,4.6,4.6,77,0.08,RA,SCT,0.17,WeatherDisplay:10.37,2013-05-10 21:06:00,
2013-05-10 17:07:00,67.8,60.3,29.89,SW,230,4.6,4.6,77,0.08,RA,SCT,0.17,WeatherDisplay:10.37,2013-05-10 21:07:00,
2013-05-10 17:08:00,67.4,59.9,29.89,SW,229,4.6,4.6,77,0.08,RA,SCT,0.17,WeatherDisplay:10.37,2013-05-10 21:08:00,
2013-05-10 17:11:00,66.8,59.4,29.89,SW,232,0.0,0.0,77,0.09,RA,SCT,0.18,WeatherDisplay:10.37,2013-05-10 21:11:00,
2013-05-10 17:14:00,66.1,58.7,29.89,SW,232,0.0,0.0,77,0.09,RA,SCT,0.18,WeatherDisplay:10.37,2013-05-10 21:14:00,
2013-05-10 17:16:00,65.8,58.4,29.89,WSW,257,0.0,0.0,77,0.09,RA,SCT,0.18,WeatherDisplay:10.37,2013-05-10 21:16:00,
2013-05-10 17:18:00,65.6,58.2,29.89,SSW,199,0.0,0.0,77,0.09,RA,SCT,0.18,WeatherDisplay:10.37,2013-05-10 21:18:00,
2013-05-10 17:19:00,65.6,58.2,29.89,SSW,199,0.0,0.0,77,0.09,RA,SCT,0.18,WeatherDisplay:10.37,2013-05-10 21:19:00,
2013-05-10 17:20:00,65.5,58.5,29.89,SSW,199,0.0,0.0,78,0.09,CLR,SCT,0.18,WeatherDisplay:10.37,2013-05-10 21:20:00,
2013-05-10 17:23:00,65.3,58.3,29.89,SSW,199,0.0,0.0,78,0.09,CLR,SCT,0.18,WeatherDisplay:10.37,2013-05-10 21:23:00,
2013-05-10 17:25:00,65.3,58.3,29.89,SSW,199,0.0,0.0,78,0.09,CLR,SCT,0.18,WeatherDisplay:10.37,2013-05-10 21:25:00,
2013-05-10 17:26:00,65.3,58.3,29.89,SSW,199,0.0,0.0,78,0.09,CLR,SCT,0.18,WeatherDisplay:10.37,2013-05-10 21:26:00,
2013-05-10 17:28:00,65.3,58.3,29.89,SSW,199,0.0,0.0,78,0.09,CLR,SCT,0.18,WeatherDisplay:10.37,2013-05-10 21:28:00,
2013-05-10 17:30:00,65.3,58.6,29.89,SSW,199,0.0,0.0,79,0.09,CLR,SCT,0.18,WeatherDisplay:10.37,2013-05-10 21:30:00,
2013-05-10 17:34:00,65.3,58.6,29.89,SSW,199,0.0,0.0,79,0.09,CLR,SCT,0.18,WeatherDisplay:10.37,2013-05-10 21:34:00,
2013-05-10 17:35:00,65.3,58.6,29.89,SSW,199,0.0,0.0,79,0.09,CLR,SCT,0.18,WeatherDisplay:10.37,2013-05-10 21:35:00,
2013-05-10 17:36:00,65.3,58.6,29.89,SSW,199,0.0,0.0,79,0.09,CLR,SCT,0.18,WeatherDisplay:10.37,2013-05-10 21:36:00,
2013-05-10 17:37:00,65.3,58.6,29.89,SSW,199,0.0,0.0,79,0.09,CLR,SCT,0.18,WeatherDisplay:10.37,2013-05-10 21:37:00,
2013-05-10 17:40:00,65.3,58.6,29.89,SSW,199,0.0,0.0,79,0.09,CLR,SCT,0.18,WeatherDisplay:10.37,2013-05-10 21:40:00,
2013-05-10 17:43:00,65.3,58.6,29.89,SSW,199,0.0,0.0,79,0.09,CLR,SCT,0.18,WeatherDisplay:10.37,2013-05-10 21:43:00,
2013-05-10 17:44:00,65.3,58.6,29.89,SSW,199,0.0,0.0,79,0.09,CLR,SCT,0.18,WeatherDisplay:10.37,2013-05-10 21:44:00,
2013-05-10 17:46:00,65.3,58.6,29.89,SSW,199,0.0,0.0,79,0.09,CLR,SCT,0.18,WeatherDisplay:10.37,2013-05-10 21:46:00,
2013-05-10 17:47:00,65.3,58.6,29.89,SSW,199,0.0,0.0,79,0.09,CLR,SCT,0.18,WeatherDisplay:10.37,2013-05-10 21:47:00,
2013-05-10 17:51:00,65.3,58.6,29.89,SSW,199,0.0,0.0,79,0.09,CLR,SCT,0.18,WeatherDisplay:10.37,2013-05-10 21:51:00,
2013-05-10 17:52:00,65.3,58.6,29.89,SSW,199,0.0,0.0,79,0.09,CLR,SCT,0.18,WeatherDisplay:10.37,2013-05-10 21:52:00,
2013-05-10 17:55:00,65.3,58.6,29.89,SSW,199,0.0,0.0,79,0.09,CLR,SCT,0.18,WeatherDisplay:10.37,2013-05-10 21:55:00,
2013-05-10 17:58:00,65.3,58.6,29.88,SSW,199,0.0,0.0,79,0.09,CLR,SCT,0.18,WeatherDisplay:10.37,2013-05-10 21:58:00,
2013-05-10 17:59:00,65.3,58.6,29.88,SSW,199,0.0,0.0,79,0.09,CLR,SCT,0.18,WeatherDisplay:10.37,2013-05-10 21:59:00,
2013-05-10 18:00:00,65.3,58.6,29.88,SSW,199,0.0,0.0,79,0.09,CLR,SCT,0.18,WeatherDisplay:10.37,2013-05-10 22:00:00,
2013-05-10 18:02:00,65.3,58.6,29.88,SSW,199,0.0,0.0,79,0.06,CLR,SCT,0.18,WeatherDisplay:10.37,2013-05-10 22:02:00,
2013-05-10 18:05:00,65.5,58.8,29.88,SSW,199,0.0,0.0,79,0.01,CLR,SCT,0.18,WeatherDisplay:10.37,2013-05-10 22:05:00,
2013-05-10 18:06:00,65.5,58.8,29.88,SSW,199,0.0,0.0,79,0.01,CLR,SCT,0.18,WeatherDisplay:10.37,2013-05-10 22:06:00,
2013-05-10 18:10:00,65.5,58.8,29.88,SSE,150,0.0,0.0,79,0.00,CLR,SCT,0.18,WeatherDisplay:10.37,2013-05-10 22:10:00,
2013-05-10 18:11:00,65.5,58.8,29.88,SSE,150,0.0,0.0,79,0.00,CLR,SCT,0.18,WeatherDisplay:10.37,2013-05-10 22:11:00,
2013-05-10 18:12:00,65.5,59.2,29.87,SSE,150,0.0,0.0,80,0.00,CLR,SCT,0.18,WeatherDisplay:10.37,2013-05-10 22:12:00,
2013-05-10 18:15:00,65.5,58.8,29.87,SSE,150,0.0,0.0,79,0.00,CLR,SCT,0.18,WeatherDisplay:10.37,2013-05-10 22:15:00,
2013-05-10 18:17:00,65.5,59.2,29.87,SSE,150,0.0,0.0,80,0.00,CLR,SCT,0.18,WeatherDisplay:10.37,2013-05-10 22:17:00,
2013-05-10 18:19:00,65.5,59.2,29.87,SSE,150,0.0,0.0,80,0.00,CLR,SCT,0.18,WeatherDisplay:10.37,2013-05-10 22:19:00,
2013-05-10 18:21:00,65.5,58.8,29.86,SSE,150,0.0,0.0,79,0.00,CLR,SCT,0.18,WeatherDisplay:10.37,2013-05-10 22:21:00,
2013-05-10 18:24:00,65.5,59.2,29.86,SSE,150,0.0,0.0,80,0.00,CLR,SCT,0.18,WeatherDisplay:10.37,2013-05-10 22:24:00,
2013-05-10 18:25:00,65.5,59.2,29.86,SSE,150,0.0,0.0,80,0.00,CLR,SCT,0.18,WeatherDisplay:10.37,2013-05-10 22:25:00,
2013-05-10 18:27:00,65.5,59.2,29.86,SSE,150,0.0,0.0,80,0.00,CLR,SCT,0.18,WeatherDisplay:10.37,2013-05-10 22:27:00,
2013-05-10 18:28:00,65.5,59.2,29.86,SSE,150,0.0,0.0,80,0.00,CLR,SCT,0.18,WeatherDisplay:10.37,2013-05-10 22:28:00,
2013-05-10 18:30:00,65.5,59.2,29.86,South,188,0.0,0.0,80,0.00,CLR,SCT,0.18,WeatherDisplay:10.37,2013-05-10 22:30:00,
2013-05-10 18:33:00,65.5,59.2,29.86,South,188,0.0,0.0,80,0.00,CLR,SCT,0.18,WeatherDisplay:10.37,2013-05-10 22:33:00,
2013-05-10 18:34:00,65.5,59.2,29.86,South,188,0.0,0.0,80,0.00,CLR,SCT,0.18,WeatherDisplay:10.37,2013-05-10 22:34:00,
2013-05-10 18:36:00,65.5,59.2,29.86,South,188,0.0,0.0,80,0.00,CLR,SCT,0.18,WeatherDisplay:10.37,2013-05-10 22:36:00,
2013-05-10 18:37:00,65.5,59.2,29.86,South,188,0.0,0.0,80,0.00,CLR,SCT,0.18,WeatherDisplay:10.37,2013-05-10 22:37:00,
2013-05-10 18:39:00,65.5,59.2,29.86,South,188,0.0,0.0,80,0.00,CLR,SCT,0.18,WeatherDisplay:10.37,2013-05-10 22:39:00,
2013-05-10 18:40:00,65.5,59.2,29.86,South,188,0.0,0.0,80,0.00,CLR,SCT,0.18,WeatherDisplay:10.37,2013-05-10 22:40:00,
2013-05-10 18:42:00,65.5,59.2,29.86,South,189,0.0,0.0,80,0.00,CLR,SCT,0.18,WeatherDisplay:10.37,2013-05-10 22:42:00,
2013-05-10 18:47:00,65.5,59.5,29.86,South,189,0.0,0.0,81,0.00,CLR,SCT,0.18,WeatherDisplay:10.37,2013-05-10 22:47:00,
2013-05-10 18:48:00,65.5,59.5,29.86,South,189,0.0,0.0,81,0.00,CLR,SCT,0.18,WeatherDisplay:10.37,2013-05-10 22:48:00,
2013-05-10 18:49:00,65.5,59.5,29.86,South,189,0.0,0.0,81,0.00,CLR,SCT,0.18,WeatherDisplay:10.37,2013-05-10 22:49:00,
2013-05-10 18:52:00,65.5,59.5,29.86,South,189,0.0,0.0,81,0.00,CLR,SCT,0.18,WeatherDisplay:10.37,2013-05-10 22:52:00,
2013-05-10 18:53:00,65.3,59.3,29.86,South,189,0.0,0.0,81,0.00,CLR,SCT,0.18,WeatherDisplay:10.37,2013-05-10 22:53:00,
2013-05-10 18:54:00,65.3,59.3,29.86,South,189,0.0,0.0,81,0.00,CLR,SCT,0.18,WeatherDisplay:10.37,2013-05-10 22:54:00,
2013-05-10 18:56:00,65.3,59.3,29.86,South,189,0.0,0.0,81,0.00,CLR,SCT,0.18,WeatherDisplay:10.37,2013-05-10 22:56:00,
2013-05-10 18:58:00,65.3,59.3,29.86,South,189,0.0,0.0,81,0.00,CLR,SCT,0.18,WeatherDisplay:10.37,2013-05-10 22:58:00,
2013-05-10 19:00:00,65.3,59.3,29.86,South,189,0.0,0.0,81,0.00,CLR,SCT,0.18,WeatherDisplay:10.37,2013-05-10 23:00:00,
2013-05-10 19:02:00,65.3,59.3,29.86,South,189,0.0,0.0,81,0.00,CLR,SCT,0.18,WeatherDisplay:10.37,2013-05-10 23:02:00,
2013-05-10 19:03:00,65.3,59.3,29.86,South,189,0.0,0.0,81,0.00,CLR,SCT,0.18,WeatherDisplay:10.37,2013-05-10 23:03:00,
2013-05-10 19:06:00,65.3,59.3,29.85,South,189,0.0,0.0,81,0.00,CLR,SCT,0.18,WeatherDisplay:10.37,2013-05-10 23:06:00,
2013-05-10 19:07:00,65.3,59.3,29.85,South,189,0.0,0.0,81,0.00,CLR,SCT,0.18,WeatherDisplay:10.37,2013-05-10 23:07:00,
2013-05-10 19:08:00,65.3,59.3,29.84,South,189,0.0,0.0,81,0.00,CLR,SCT,0.18,WeatherDisplay:10.37,2013-05-10 23:08:00,
2013-05-10 19:09:00,65.3,59.3,29.84,South,189,0.0,0.0,81,0.00,CLR,SCT,0.18,WeatherDisplay:10.37,2013-05-10 23:09:00,
2013-05-10 19:13:00,65.3,59.7,29.84,South,189,0.0,0.0,82,0.00,CLR,SCT,0.18,WeatherDisplay:10.37,2013-05-10 23:13:00,
2013-05-10 19:14:00,65.3,59.7,29.84,South,189,0.0,0.0,82,0.00,CLR,SCT,0.18,WeatherDisplay:10.37,2013-05-10 23:14:00,
2013-05-10 19:18:00,65.2,59.6,29.83,South,189,0.0,0.0,82,0.00,CLR,SCT,0.18,WeatherDisplay:10.37,2013-05-10 23:18:00,
2013-05-10 19:20:00,65.2,59.6,29.83,South,189,0.0,0.0,82,0.00,CLR,SCT,0.18,WeatherDisplay:10.37,2013-05-10 23:20:00,
2013-05-10 19:21:00,65.2,59.6,29.83,South,189,0.0,0.0,82,0.00,CLR,SCT,0.18,WeatherDisplay:10.37,2013-05-10 23:21:00,
2013-05-10 19:22:00,65.2,59.6,29.83,South,189,0.0,0.0,82,0.00,CLR,SCT,0.18,WeatherDisplay:10.37,2013-05-10 23:22:00,
2013-05-10 19:24:00,65.2,59.6,29.83,South,189,0.0,0.0,82,0.00,CLR,SCT,0.18,WeatherDisplay:10.37,2013-05-10 23:24:00,
2013-05-10 19:25:00,65.0,59.4,29.83,South,189,0.0,0.0,82,0.00,CLR,SCT,0.18,WeatherDisplay:10.37,2013-05-10 23:25:00,
2013-05-10 19:26:00,65.0,59.7,29.83,South,189,0.0,0.0,83,0.00,CLR,SCT,0.18,WeatherDisplay:10.37,2013-05-10 23:26:00,
2013-05-10 19:27:00,65.0,59.7,29.83,South,189,0.0,0.0,83,0.00,CLR,SCT,0.18,WeatherDisplay:10.37,2013-05-10 23:27:00,
2013-05-10 19:31:00,65.0,59.7,29.83,South,189,0.0,0.0,83,0.00,CLR,SCT,0.18,WeatherDisplay:10.37,2013-05-10 23:31:00,
2013-05-10 19:32:00,65.0,59.7,29.83,South,189,0.0,0.0,83,0.00,CLR,SCT,0.18,WeatherDisplay:10.37,2013-05-10 23:32:00,
2013-05-10 19:36:00,65.0,59.7,29.83,South,189,0.0,0.0,83,0.00,CLR,SCT,0.18,WeatherDisplay:10.37,2013-05-10 23:36:00,
2013-05-10 19:37:00,65.0,59.7,29.83,South,189,0.0,0.0,83,0.00,CLR,SCT,0.18,WeatherDisplay:10.37,2013-05-10 23:37:00,
2013-05-10 19:38:00,65.0,59.7,29.83,South,189,0.0,0.0,83,0.00,CLR,SCT,0.18,WeatherDisplay:10.37,2013-05-10 23:38:00,
2013-05-10 19:40:00,64.8,59.5,29.83,SW,232,0.0,0.0,83,0.00,CLR,SCT,0.18,WeatherDisplay:10.37,2013-05-10 23:40:00,
2013-05-10 19:43:00,64.8,59.5,29.83,SW,221,0.0,0.0,83,0.00,CLR,SCT,0.18,WeatherDisplay:10.37,2013-05-10 23:43:00,
2013-05-10 19:44:00,64.8,59.5,29.83,SW,221,0.0,0.0,83,0.00,CLR,SCT,0.18,WeatherDisplay:10.37,2013-05-10 23:44:00,
2013-05-10 19:47:00,64.8,59.5,29.83,SW,228,0.0,0.0,83,0.00,CLR,SCT,0.18,WeatherDisplay:10.37,2013-05-10 23:47:00,
2013-05-10 19:50:00,64.7,59.4,29.83,SW,228,0.0,0.0,83,0.00,CLR,SCT,0.18,WeatherDisplay:10.37,2013-05-10 23:50:00,
2013-05-10 19:52:00,64.7,59.4,29.83,SW,228,0.0,0.0,83,0.00,CLR,SCT,0.18,WeatherDisplay:10.37,2013-05-10 23:52:00,
2013-05-10 19:54:00,64.7,59.4,29.83,SW,228,0.0,0.0,83,0.00,CLR,SCT,0.18,WeatherDisplay:10.37,2013-05-10 23:54:00,
2013-05-10 19:56:00,64.5,59.2,29.83,SW,229,0.0,0.0,83,0.00,CLR,SCT,0.18,WeatherDisplay:10.37,2013-05-10 23:56:00,
2013-05-10 19:58:00,64.5,59.2,29.83,SW,229,0.0,0.0,83,0.00,CLR,SCT,0.18,WeatherDisplay:10.37,2013-05-10 23:58:00,
2013-05-10 19:59:00,64.5,59.2,29.83,SW,229,0.0,0.0,83,0.00,CLR,SCT,0.18,WeatherDisplay:10.37,2013-05-10 23:59:00,
2013-05-10 20:01:00,64.5,59.2,29.84,WSW,248,0.0,0.0,83,0.00,CLR,SCT,0.18,WeatherDisplay:10.37,2013-05-11 00:01:00,
2013-05-10 20:03:00,64.5,59.2,29.84,WSW,248,0.0,0.0,83,0.00,CLR,SCT,0.18,WeatherDisplay:10.37,2013-05-11 00:03:00,
2013-05-10 20:05:00,64.5,59.6,29.84,WSW,248,0.0,0.0,84,0.00,CLR,SCT,0.18,WeatherDisplay:10.37,2013-05-11 00:05:00,
2013-05-10 20:06:00,64.5,59.6,29.83,WSW,248,0.0,0.0,84,0.00,,SCT,0.18,WeatherDisplay:10.37,2013-05-11 00:06:00,
2013-05-10 20:09:00,64.3,59.0,29.83,WNW,286,0.0,0.0,83,0.00,,SCT,0.18,WeatherDisplay:10.37,2013-05-11 00:09:00,
2013-05-10 20:10:00,64.3,59.0,29.83,WNW,286,0.0,0.0,83,0.00,,SCT,0.18,WeatherDisplay:10.37,2013-05-11 00:10:00,
2013-05-10 20:11:00,64.3,59.0,29.83,WNW,286,0.0,0.0,83,0.00,,SCT,0.18,WeatherDisplay:10.37,2013-05-11 00:11:00,
2013-05-10 20:14:00,64.3,59.0,29.83,WNW,286,0.0,0.0,83,0.00,,SCT,0.18,WeatherDisplay:10.37,2013-05-11 00:14:00,
2013-05-10 20:16:00,64.2,58.9,29.83,WNW,290,0.0,0.0,83,0.00,,SCT,0.18,WeatherDisplay:10.37,2013-05-11 00:16:00,
2013-05-10 20:18:00,64.2,58.9,29.83,WNW,290,0.0,0.0,83,0.00,,SCT,0.18,WeatherDisplay:10.37,2013-05-11 00:18:00,
2013-05-10 20:19:00,64.2,58.9,29.83,WNW,290,0.0,0.0,83,0.00,,SCT,0.18,WeatherDisplay:10.37,2013-05-11 00:19:00,
2013-05-10 20:21:00,64.0,58.7,29.83,WNW,290,0.0,0.0,83,0.00,,SCT,0.18,WeatherDisplay:10.37,2013-05-11 00:21:00,
2013-05-10 20:22:00,64.0,58.7,29.83,WNW,290,0.0,0.0,83,0.00,,SCT,0.18,WeatherDisplay:10.37,2013-05-11 00:22:00,
2013-05-10 20:23:00,64.0,58.7,29.83,WNW,291,0.0,0.0,83,0.00,,SCT,0.18,WeatherDisplay:10.37,2013-05-11 00:23:00,
2013-05-10 20:24:00,64.0,58.7,29.83,WNW,291,0.0,0.0,83,0.00,,SCT,0.18,WeatherDisplay:10.37,2013-05-11 00:24:00,
2013-05-10 20:26:00,64.0,58.7,29.83,WNW,290,0.0,0.0,83,0.00,,SCT,0.18,WeatherDisplay:10.37,2013-05-11 00:26:00,
2013-05-10 20:29:00,63.9,58.6,29.83,WNW,290,0.0,0.0,83,0.00,,SCT,0.18,WeatherDisplay:10.37,2013-05-11 00:29:00,
2013-05-10 20:31:00,63.9,59.0,29.83,WNW,290,0.0,0.0,84,0.00,,SCT,0.18,WeatherDisplay:10.37,2013-05-11 00:31:00,
2013-05-10 20:32:00,63.9,59.0,29.84,WNW,290,0.0,0.0,84,0.00,,SCT,0.18,WeatherDisplay:10.37,2013-05-11 00:32:00,
2013-05-10 20:33:00,63.9,58.6,29.84,WNW,290,0.0,0.0,83,0.00,,SCT,0.18,WeatherDisplay:10.37,2013-05-11 00:33:00,
2013-05-10 20:34:00,63.9,58.6,29.84,WNW,290,0.0,0.0,83,0.00,,SCT,0.18,WeatherDisplay:10.37,2013-05-11 00:34:00,
2013-05-10 20:36:00,63.9,59.0,29.84,WNW,290,0.0,0.0,84,0.00,,SCT,0.18,WeatherDisplay:10.37,2013-05-11 00:36:00,
2013-05-10 20:39:00,63.7,58.8,29.84,WNW,290,0.0,0.0,84,0.00,,SCT,0.18,WeatherDisplay:10.37,2013-05-11 00:39:00,
2013-05-10 20:41:00,63.7,58.8,29.84,WNW,290,0.0,0.0,84,0.00,,SCT,0.18,WeatherDisplay:10.37,2013-05-11 00:41:00,
2013-05-10 20:42:00,63.7,58.8,29.84,WNW,290,0.0,0.0,84,0.00,,SCT,0.18,WeatherDisplay:10.37,2013-05-11 00:42:00,
2013-05-10 20:43:00,63.7,58.8,29.84,WNW,290,0.0,0.0,84,0.00,,SCT,0.18,WeatherDisplay:10.37,2013-05-11 00:43:00,
2013-05-10 20:48:00,63.5,58.6,29.84,WNW,290,0.0,0.0,84,0.00,,SCT,0.18,WeatherDisplay:10.37,2013-05-11 00:48:00,
2013-05-10 20:49:00,63.5,58.6,29.84,WNW,290,0.0,0.0,84,0.00,,SCT,0.18,WeatherDisplay:10.37,2013-05-11 00:49:00,
2013-05-10 20:53:00,63.4,58.1,29.84,WNW,290,0.0,0.0,83,0.00,,SCT,0.18,WeatherDisplay:10.37,2013-05-11 00:53:00,
2013-05-10 20:54:00,63.4,58.5,29.84,WNW,290,0.0,0.0,84,0.00,,SCT,0.18,WeatherDisplay:10.37,2013-05-11 00:54:00,
2013-05-10 20:56:00,63.4,58.1,29.84,WNW,290,0.0,0.0,83,0.00,,SCT,0.18,WeatherDisplay:10.37,2013-05-11 00:56:00,
2013-05-10 20:59:00,63.2,58.3,29.84,WNW,290,0.0,0.0,84,0.00,,SCT,0.18,WeatherDisplay:10.37,2013-05-11 00:59:00,
2013-05-10 21:00:00,63.2,58.3,29.84,WNW,290,0.0,0.0,84,0.00,,SCT,0.18,WeatherDisplay:10.37,2013-05-11 01:00:00,
2013-05-10 21:02:00,63.2,58.3,29.84,WNW,290,0.0,0.0,84,0.00,,SCT,0.18,WeatherDisplay:10.37,2013-05-11 01:02:00,
2013-05-10 21:03:00,63.1,58.2,29.84,WNW,290,0.0,0.0,84,0.00,,SCT,0.18,WeatherDisplay:10.37,2013-05-11 01:03:00,
2013-05-10 21:04:00,63.1,58.2,29.84,WNW,290,0.0,0.0,84,0.00,,SCT,0.18,WeatherDisplay:10.37,2013-05-11 01:04:00,
2013-05-10 21:07:00,63.1,58.2,29.83,WNW,290,0.0,0.0,84,0.00,,SCT,0.18,WeatherDisplay:10.37,2013-05-11 01:07:00,
2013-05-10 21:09:00,62.9,57.7,29.83,WNW,290,0.0,0.0,83,0.00,,SCT,0.18,WeatherDisplay:10.37,2013-05-11 01:09:00,
2013-05-10 21:10:00,62.9,58.0,29.83,WNW,290,0.0,0.0,84,0.00,,SCT,0.18,WeatherDisplay:10.37,2013-05-11 01:10:00,
2013-05-10 21:15:00,62.7,57.8,29.83,WNW,290,0.0,0.0,84,0.00,,SCT,0.18,WeatherDisplay:10.37,2013-05-11 01:15:00,
2013-05-10 21:16:00,62.7,57.8,29.83,WNW,290,0.0,0.0,84,0.00,,SCT,0.18,WeatherDisplay:10.37,2013-05-11 01:16:00,
2013-05-10 21:18:00,62.7,57.8,29.83,WNW,290,0.0,0.0,84,0.00,,SCT,0.18,WeatherDisplay:10.37,2013-05-11 01:18:00,
2013-05-10 21:21:00,62.7,57.8,29.84,WNW,290,0.0,0.0,84,0.00,,SCT,0.18,WeatherDisplay:10.37,2013-05-11 01:21:00,
2013-05-10 21:23:00,62.6,57.7,29.84,WNW,290,0.0,0.0,84,0.00,,SCT,0.18,WeatherDisplay:10.37,2013-05-11 01:23:00,
2013-05-10 21:24:00,62.6,57.7,29.84,WNW,290,0.0,0.0,84,0.00,,SCT,0.18,WeatherDisplay:10.37,2013-05-11 01:24:00,
2013-05-10 21:25:00,62.6,57.7,29.84,WNW,290,0.0,0.0,84,0.00,,SCT,0.18,WeatherDisplay:10.37,2013-05-11 01:25:00,
2013-05-10 21:27:00,62.4,57.5,29.84,WNW,290,0.0,0.0,84,0.00,,SCT,0.18,WeatherDisplay:10.37,2013-05-11 01:27:00,
2013-05-10 21:29:00,62.4,57.5,29.84,WNW,290,0.0,0.0,84,0.00,,SCT,0.18,WeatherDisplay:10.37,2013-05-11 01:29:00,
2013-05-10 21:31:00,62.3,57.4,29.84,WNW,290,0.0,0.0,84,0.00,,SCT,0.18,WeatherDisplay:10.37,2013-05-11 01:31:00,
2013-05-10 21:32:00,62.3,57.4,29.84,WNW,290,0.0,0.0,84,0.00,,SCT,0.18,WeatherDisplay:10.37,2013-05-11 01:32:00,
2013-05-10 21:33:00,62.3,57.4,29.84,WNW,290,0.0,0.0,84,0.00,,SCT,0.18,WeatherDisplay:10.37,2013-05-11 01:33:00,
2013-05-10 21:34:00,62.1,57.2,29.83,WNW,290,0.0,0.0,84,0.00,,SCT,0.18,WeatherDisplay:10.37,2013-05-11 01:34:00,
2013-05-10 21:35:00,62.1,57.2,29.83,WNW,290,0.0,0.0,84,0.00,,SCT,0.18,WeatherDisplay:10.37,2013-05-11 01:35:00,
2013-05-10 21:39:00,62.0,57.1,29.84,WNW,290,0.0,0.0,84,0.00,,SCT,0.18,WeatherDisplay:10.37,2013-05-11 01:39:00,
2013-05-10 21:40:00,62.0,57.1,29.84,WNW,290,0.0,0.0,84,0.00,,SCT,0.18,WeatherDisplay:10.37,2013-05-11 01:40:00,
2013-05-10 21:41:00,62.0,57.1,29.84,WNW,290,0.0,0.0,84,0.00,,SCT,0.18,WeatherDisplay:10.37,2013-05-11 01:41:00,
2013-05-10 21:42:00,61.8,56.9,29.84,WNW,290,0.0,0.0,84,0.00,,SCT,0.18,WeatherDisplay:10.37,2013-05-11 01:42:00,
2013-05-10 21:44:00,61.8,56.9,29.84,WNW,290,0.0,0.0,84,0.00,,SCT,0.18,WeatherDisplay:10.37,2013-05-11 01:44:00,
2013-05-10 21:49:00,61.6,56.7,29.85,WNW,290,0.0,0.0,84,0.00,,SCT,0.18,WeatherDisplay:10.37,2013-05-11 01:49:00,
2013-05-10 21:51:00,61.6,56.7,29.85,WNW,290,0.0,0.0,84,0.00,,SCT,0.18,WeatherDisplay:10.37,2013-05-11 01:51:00,
2013-05-10 21:53:00,61.6,56.7,29.85,WNW,290,0.0,0.0,84,0.00,,SCT,0.18,WeatherDisplay:10.37,2013-05-11 01:53:00,
2013-05-10 21:54:00,61.6,56.7,29.85,WNW,290,0.0,0.0,84,0.00,,SCT,0.18,WeatherDisplay:10.37,2013-05-11 01:54:00,
2013-05-10 21:57:00,61.6,56.7,29.85,WNW,290,0.0,0.0,84,0.00,,SCT,0.18,WeatherDisplay:10.37,2013-05-11 01:57:00,
2013-05-10 21:58:00,61.6,56.7,29.85,WNW,290,0.0,0.0,84,0.00,,SCT,0.18,WeatherDisplay:10.37,2013-05-11 01:58:00,
2013-05-10 21:59:00,61.6,56.7,29.85,WNW,290,0.0,0.0,84,0.00,,SCT,0.18,WeatherDisplay:10.37,2013-05-11 01:59:00,
2013-05-10 22:02:00,61.6,56.7,29.85,WNW,290,0.0,0.0,84,0.00,,SCT,0.18,WeatherDisplay:10.37,2013-05-11 02:02:00,
2013-05-10 22:03:00,61.6,56.7,29.85,WNW,290,0.0,0.0,84,0.00,,SCT,0.18,WeatherDisplay:10.37,2013-05-11 02:03:00,
2013-05-10 22:05:00,61.6,56.7,29.85,WNW,290,0.0,0.0,84,0.00,,SCT,0.18,WeatherDisplay:10.37,2013-05-11 02:05:00,
2013-05-10 22:07:00,61.6,56.7,29.84,WNW,290,0.0,0.0,84,0.00,,SCT,0.18,WeatherDisplay:10.37,2013-05-11 02:07:00,
2013-05-10 22:09:00,61.5,56.6,29.84,WNW,290,0.0,0.0,84,0.00,,SCT,0.18,WeatherDisplay:10.37,2013-05-11 02:09:00,
2013-05-10 22:12:00,61.5,56.6,29.84,WNW,290,0.0,0.0,84,0.00,,SCT,0.18,WeatherDisplay:10.37,2013-05-11 02:12:00,
2013-05-10 22:13:00,61.5,56.6,29.85,WNW,290,0.0,0.0,84,0.00,,SCT,0.18,WeatherDisplay:10.37,2013-05-11 02:13:00,
2013-05-10 22:14:00,61.5,56.6,29.85,WNW,290,0.0,0.0,84,0.00,,SCT,0.18,WeatherDisplay:10.37,2013-05-11 02:14:00,
2013-05-10 22:19:00,61.5,56.6,29.85,WNW,290,0.0,0.0,84,0.00,,SCT,0.18,WeatherDisplay:10.37,2013-05-11 02:19:00,
2013-05-10 22:20:00,61.3,56.4,29.85,WNW,290,0.0,0.0,84,0.00,,SCT,0.18,WeatherDisplay:10.37,2013-05-11 02:20:00,
2013-05-10 22:21:00,61.3,56.4,29.85,WNW,290,0.0,0.0,84,0.00,,SCT,0.18,WeatherDisplay:10.37,2013-05-11 02:21:00,
2013-05-10 22:23:00,61.3,56.4,29.85,WNW,290,0.0,0.0,84,0.00,,SCT,0.18,WeatherDisplay:10.37,2013-05-11 02:23:00,
2013-05-10 22:24:00,61.3,56.4,29.85,WNW,290,0.0,0.0,84,0.00,,SCT,0.18,WeatherDisplay:10.37,2013-05-11 02:24:00,
2013-05-10 22:26:00,61.3,56.4,29.85,WNW,290,0.0,0.0,84,0.00,,SCT,0.18,WeatherDisplay:10.37,2013-05-11 02:26:00,
2013-05-10 22:28:00,61.3,56.4,29.85,WNW,290,0.0,0.0,84,0.00,,SCT,0.18,WeatherDisplay:10.37,2013-05-11 02:28:00,
2013-05-10 22:29:00,61.3,56.4,29.85,WNW,290,0.0,0.0,84,0.00,,SCT,0.18,WeatherDisplay:10.37,2013-05-11 02:29:00,
2013-05-10 22:31:00,61.3,56.4,29.85,WNW,290,0.0,0.0,84,0.00,,SCT,0.18,WeatherDisplay:10.37,2013-05-11 02:31:00,
2013-05-10 22:33:00,61.3,56.4,29.85,WNW,290,0.0,0.0,84,0.00,,SCT,0.18,WeatherDisplay:10.37,2013-05-11 02:33:00,
2013-05-10 22:35:00,61.3,56.4,29.85,WNW,290,0.0,0.0,84,0.00,,SCT,0.18,WeatherDisplay:10.37,2013-05-11 02:35:00,
2013-05-10 22:36:00,61.3,56.4,29.85,WNW,290,0.0,0.0,84,0.00,,SCT,0.18,WeatherDisplay:10.37,2013-05-11 02:36:00,
2013-05-10 22:38:00,61.2,56.3,29.85,WNW,290,0.0,0.0,84,0.00,,SCT,0.18,WeatherDisplay:10.37,2013-05-11 02:38:00,
2013-05-10 22:39:00,61.2,56.3,29.85,WNW,290,0.0,0.0,84,0.00,,SCT,0.18,WeatherDisplay:10.37,2013-05-11 02:39:00,
2013-05-10 22:42:00,61.2,56.3,29.85,WNW,290,0.0,0.0,84,0.00,,SCT,0.18,WeatherDisplay:10.37,2013-05-11 02:42:00,
2013-05-10 22:43:00,61.2,56.3,29.85,WNW,290,0.0,0.0,84,0.00,,SCT,0.18,WeatherDisplay:10.37,2013-05-11 02:43:00,
2013-05-10 22:45:00,61.2,56.3,29.85,WNW,290,0.0,0.0,84,0.00,,SCT,0.18,WeatherDisplay:10.37,2013-05-11 02:45:00,
2013-05-10 22:48:00,61.0,56.1,29.85,WNW,290,0.0,0.0,84,0.00,,SCT,0.18,WeatherDisplay:10.37,2013-05-11 02:48:00,
2013-05-10 22:53:00,61.0,56.1,29.86,WNW,290,0.0,0.0,84,0.00,,SCT,0.18,WeatherDisplay:10.37,2013-05-11 02:53:00,
2013-05-10 22:54:00,61.0,56.1,29.86,WNW,290,0.0,0.0,84,0.00,,SCT,0.18,WeatherDisplay:10.37,2013-05-11 02:54:00,
2013-05-10 22:55:00,61.0,56.1,29.86,WNW,290,0.0,0.0,84,0.00,,SCT,0.18,WeatherDisplay:10.37,2013-05-11 02:55:00,
2013-05-10 23:00:00,60.9,56.0,29.86,WNW,290,0.0,0.0,84,0.00,,SCT,0.18,WeatherDisplay:10.37,2013-05-11 03:00:00,
2013-05-10 23:01:00,60.9,56.0,29.86,WNW,290,0.0,0.0,84,0.00,,SCT,0.18,WeatherDisplay:10.37,2013-05-11 03:01:00,
2013-05-10 23:02:00,60.9,56.0,29.86,WNW,290,0.0,0.0,84,0.00,,SCT,0.18,WeatherDisplay:10.37,2013-05-11 03:02:00,
2013-05-10 23:03:00,60.9,56.0,29.86,WNW,290,0.0,0.0,84,0.00,,SCT,0.18,WeatherDisplay:10.37,2013-05-11 03:03:00,
2013-05-10 23:08:00,60.7,55.8,29.85,WNW,290,0.0,0.0,84,0.00,,SCT,0.18,WeatherDisplay:10.37,2013-05-11 03:08:00,
2013-05-10 23:09:00,60.7,55.8,29.85,WNW,290,0.0,0.0,84,0.00,,SCT,0.18,WeatherDisplay:10.37,2013-05-11 03:09:00,
2013-05-10 23:11:00,60.7,55.8,29.85,WNW,290,0.0,0.0,84,0.00,,SCT,0.18,WeatherDisplay:10.37,2013-05-11 03:11:00,
2013-05-10 23:12:00,60.9,56.0,29.85,WNW,290,0.0,0.0,84,0.00,,SCT,0.18,WeatherDisplay:10.37,2013-05-11 03:12:00,
2013-05-10 23:14:00,60.9,56.0,29.85,WNW,290,0.0,0.0,84,0.00,,SCT,0.18,WeatherDisplay:10.37,2013-05-11 03:14:00,
2013-05-10 23:15:00,60.9,56.0,29.85,WNW,290,0.0,0.0,84,0.00,,SCT,0.18,WeatherDisplay:10.37,2013-05-11 03:15:00,
2013-05-10 23:17:00,60.9,56.4,29.85,WNW,290,0.0,0.0,85,0.00,,SCT,0.18,WeatherDisplay:10.37,2013-05-11 03:17:00,
2013-05-10 23:18:00,60.9,56.4,29.85,WNW,290,0.0,0.0,85,0.00,,SCT,0.18,WeatherDisplay:10.37,2013-05-11 03:18:00,
2013-05-10 23:19:00,60.9,56.4,29.85,WNW,290,0.0,0.0,85,0.00,,SCT,0.18,WeatherDisplay:10.37,2013-05-11 03:19:00,
2013-05-10 23:21:00,60.9,56.4,29.85,WNW,290,0.0,0.0,85,0.00,,SCT,0.18,WeatherDisplay:10.37,2013-05-11 03:21:00,
2013-05-10 23:24:00,60.7,56.2,29.85,WNW,290,0.0,0.0,85,0.00,,SCT,0.18,WeatherDisplay:10.37,2013-05-11 03:24:00,
2013-05-10 23:25:00,60.7,56.2,29.85,WNW,290,0.0,0.0,85,0.00,,SCT,0.18,WeatherDisplay:10.37,2013-05-11 03:25:00,
2013-05-10 23:26:00,60.7,56.2,29.85,WNW,290,0.0,0.0,85,0.00,,SCT,0.18,WeatherDisplay:10.37,2013-05-11 03:26:00,
2013-05-10 23:31:00,60.7,56.2,29.85,WNW,290,0.0,0.0,85,0.00,,SCT,0.18,WeatherDisplay:10.37,2013-05-11 03:31:00,
2013-05-10 23:32:00,60.7,56.2,29.85,WNW,290,0.0,0.0,85,0.00,,SCT,0.18,WeatherDisplay:10.37,2013-05-11 03:32:00,
2013-05-10 23:36:00,60.7,56.2,29.85,WNW,290,0.0,0.0,85,0.00,,SCT,0.18,WeatherDisplay:10.37,2013-05-11 03:36:00,
2013-05-10 23:37:00,60.7,56.2,29.85,WNW,290,0.0,0.0,85,0.00,,SCT,0.18,WeatherDisplay:10.37,2013-05-11 03:37:00,
2013-05-10 23:38:00,60.7,56.2,29.85,WNW,290,0.0,0.0,85,0.00,,SCT,0.18,WeatherDisplay:10.37,2013-05-11 03:38:00,
2013-05-10 23:39:00,60.7,56.5,29.85,WNW,290,0.0,0.0,86,0.00,,SCT,0.18,WeatherDisplay:10.37,2013-05-11 03:39:00,
2013-05-10 23:41:00,60.7,56.5,29.85,WNW,290,0.0,0.0,86,0.00,,SCT,0.18,WeatherDisplay:10.37,2013-05-11 03:41:00,
2013-05-10 23:42:00,60.9,56.7,29.85,WNW,290,0.0,0.0,86,0.00,,SCT,0.18,WeatherDisplay:10.37,2013-05-11 03:42:00,
2013-05-10 23:43:00,60.9,56.7,29.85,WNW,290,0.0,0.0,86,0.00,,SCT,0.18,WeatherDisplay:10.37,2013-05-11 03:43:00,
2013-05-10 23:44:00,60.9,56.7,29.85,WNW,290,0.0,0.0,86,0.00,,SCT,0.18,WeatherDisplay:10.37,2013-05-11 03:44:00,
2013-05-10 23:48:00,60.9,56.7,29.85,WNW,290,0.0,0.0,86,0.00,,SCT,0.18,WeatherDisplay:10.37,2013-05-11 03:48:00,
2013-05-10 23:49:00,61.0,56.8,29.84,WNW,290,0.0,0.0,86,0.00,,SCT,0.18,WeatherDisplay:10.37,2013-05-11 03:49:00,
2013-05-10 23:52:00,60.9,56.4,29.84,WNW,290,0.0,0.0,85,0.00,,SCT,0.18,WeatherDisplay:10.37,2013-05-11 03:52:00,
2013-05-10 23:54:00,60.9,56.4,29.84,WNW,290,0.0,0.0,85,0.00,,SCT,0.18,WeatherDisplay:10.37,2013-05-11 03:54:00,
2013-05-10 23:55:00,60.9,56.4,29.84,WNW,290,0.0,0.0,85,0.00,,SCT,0.18,WeatherDisplay:10.37,2013-05-11 03:55:00,
2013-05-10 23:57:00,60.9,56.4,29.84,WNW,290,0.0,0.0,85,0.00,,SCT,0.18,WeatherDisplay:10.37,2013-05-11 03:57:00,
2013-05-10 23:58:00,60.9,56.4,29.84,WNW,290,0.0,0.0,85,0.00,,SCT,0.18,WeatherDisplay:10.37,2013-05-11 03:58:00,